<?xml version="1.0" encoding="UTF-8" standalone="no" ?>
<gpx xmlns="http://www.topografix.com/GPX/1/1" xmlns:xsi="http://www.w3.org/2001/XMLSchema-instance" xsi:schemaLocation="http://www.topografix.com/GPX/1/1 http://www.topografix.com/GPX/1/1/gpx.xsd" version="1.1" creator="VisuGPX - https://www.visugpx.com">
  <metadata>
    <name>Parcours numero 1</name>
    <desc><![CDATA[Parcours numero 1]]></desc>
  </metadata>
  <trk>
    <name><![CDATA[Parcours numero 1_1]]></name>
    <trkseg>
      <trkpt lat="46.69788" lon="4.8375">
        <ele>190</ele>
        <time>2013-01-30T10:59:12Z</time>
      </trkpt>
      <trkpt lat="46.69788" lon="4.8375">
        <ele>191.6</ele>
        <time>2013-01-30T10:59:20Z</time>
      </trkpt>
      <trkpt lat="46.69788" lon="4.83758">
        <ele>192.7</ele>
        <time>2013-01-30T10:59:22Z</time>
      </trkpt>
      <trkpt lat="46.69787" lon="4.83767">
        <ele>193.6</ele>
        <time>2013-01-30T10:59:24Z</time>
      </trkpt>
      <trkpt lat="46.69777" lon="4.83772">
        <ele>189.8</ele>
        <time>2013-01-30T10:59:28Z</time>
      </trkpt>
      <trkpt lat="46.69767" lon="4.83778">
        <ele>187.1</ele>
        <time>2013-01-30T10:59:32Z</time>
      </trkpt>
      <trkpt lat="46.69758" lon="4.83777">
        <ele>194.1</ele>
        <time>2013-01-30T10:59:35Z</time>
      </trkpt>
      <trkpt lat="46.69747" lon="4.83772">
        <ele>191.9</ele>
        <time>2013-01-30T10:59:39Z</time>
      </trkpt>
      <trkpt lat="46.69732" lon="4.83767">
        <ele>187.3</ele>
        <time>2013-01-30T10:59:44Z</time>
      </trkpt>
      <trkpt lat="46.69723" lon="4.83766">
        <ele>192.7</ele>
        <time>2013-01-30T10:59:48Z</time>
      </trkpt>
      <trkpt lat="46.6972" lon="4.83772">
        <ele>189.6</ele>
        <time>2013-01-30T10:59:50Z</time>
      </trkpt>
      <trkpt lat="46.69718" lon="4.83781">
        <ele>186.1</ele>
        <time>2013-01-30T10:59:52Z</time>
      </trkpt>
      <trkpt lat="46.69716" lon="4.8379">
        <ele>188.6</ele>
        <time>2013-01-30T10:59:54Z</time>
      </trkpt>
      <trkpt lat="46.69714" lon="4.83806">
        <ele>187.5</ele>
        <time>2013-01-30T10:59:58Z</time>
      </trkpt>
      <trkpt lat="46.6971" lon="4.83826">
        <ele>194.3</ele>
        <time>2013-01-30T11:00:03Z</time>
      </trkpt>
      <trkpt lat="46.69708" lon="4.83841">
        <ele>191.3</ele>
        <time>2013-01-30T11:00:07Z</time>
      </trkpt>
      <trkpt lat="46.69703" lon="4.83864">
        <ele>186.5</ele>
        <time>2013-01-30T11:00:12Z</time>
      </trkpt>
      <trkpt lat="46.69698" lon="4.83884">
        <ele>183.9</ele>
        <time>2013-01-30T11:00:17Z</time>
      </trkpt>
      <trkpt lat="46.69694" lon="4.83902">
        <ele>183.5</ele>
        <time>2013-01-30T11:00:21Z</time>
      </trkpt>
      <trkpt lat="46.69689" lon="4.83924">
        <ele>184.2</ele>
        <time>2013-01-30T11:00:27Z</time>
      </trkpt>
      <trkpt lat="46.69688" lon="4.83931">
        <ele>188.5</ele>
        <time>2013-01-30T11:00:29Z</time>
      </trkpt>
      <trkpt lat="46.69687" lon="4.83939">
        <ele>182.7</ele>
        <time>2013-01-30T11:00:31Z</time>
      </trkpt>
      <trkpt lat="46.69681" lon="4.8396">
        <ele>189</ele>
        <time>2013-01-30T11:00:36Z</time>
      </trkpt>
      <trkpt lat="46.69677" lon="4.83975">
        <ele>189</ele>
        <time>2013-01-30T11:00:40Z</time>
      </trkpt>
      <trkpt lat="46.69675" lon="4.83991">
        <ele>187.2</ele>
        <time>2013-01-30T11:00:44Z</time>
      </trkpt>
      <trkpt lat="46.69674" lon="4.84006">
        <ele>188.8</ele>
        <time>2013-01-30T11:00:48Z</time>
      </trkpt>
      <trkpt lat="46.69671" lon="4.84021">
        <ele>187.7</ele>
        <time>2013-01-30T11:00:52Z</time>
      </trkpt>
      <trkpt lat="46.6967" lon="4.8403">
        <ele>194.1</ele>
        <time>2013-01-30T11:00:54Z</time>
      </trkpt>
      <trkpt lat="46.69668" lon="4.84037">
        <ele>191.6</ele>
        <time>2013-01-30T11:00:56Z</time>
      </trkpt>
      <trkpt lat="46.69662" lon="4.84058">
        <ele>189.1</ele>
        <time>2013-01-30T11:01:01Z</time>
      </trkpt>
      <trkpt lat="46.6966" lon="4.84075">
        <ele>184.7</ele>
        <time>2013-01-30T11:01:05Z</time>
      </trkpt>
      <trkpt lat="46.69657" lon="4.84092">
        <ele>186.8</ele>
        <time>2013-01-30T11:01:10Z</time>
      </trkpt>
      <trkpt lat="46.69652" lon="4.84113">
        <ele>184.6</ele>
        <time>2013-01-30T11:01:15Z</time>
      </trkpt>
      <trkpt lat="46.69647" lon="4.84136">
        <ele>186.5</ele>
        <time>2013-01-30T11:01:20Z</time>
      </trkpt>
      <trkpt lat="46.69643" lon="4.84156">
        <ele>186.5</ele>
        <time>2013-01-30T11:01:25Z</time>
      </trkpt>
      <trkpt lat="46.69639" lon="4.84172">
        <ele>188.6</ele>
        <time>2013-01-30T11:01:29Z</time>
      </trkpt>
      <trkpt lat="46.69636" lon="4.84193">
        <ele>188.6</ele>
        <time>2013-01-30T11:01:35Z</time>
      </trkpt>
      <trkpt lat="46.69637" lon="4.84201">
        <ele>185.4</ele>
        <time>2013-01-30T11:01:37Z</time>
      </trkpt>
      <trkpt lat="46.69641" lon="4.84209">
        <ele>189.9</ele>
        <time>2013-01-30T11:01:40Z</time>
      </trkpt>
      <trkpt lat="46.69651" lon="4.84214">
        <ele>190.6</ele>
        <time>2013-01-30T11:01:44Z</time>
      </trkpt>
      <trkpt lat="46.69665" lon="4.84213">
        <ele>186</ele>
        <time>2013-01-30T11:01:49Z</time>
      </trkpt>
      <trkpt lat="46.69675" lon="4.84208">
        <ele>193.6</ele>
        <time>2013-01-30T11:01:53Z</time>
      </trkpt>
      <trkpt lat="46.69686" lon="4.84206">
        <ele>199.2</ele>
        <time>2013-01-30T11:01:57Z</time>
      </trkpt>
      <trkpt lat="46.69697" lon="4.84201">
        <ele>198.7</ele>
        <time>2013-01-30T11:02:01Z</time>
      </trkpt>
      <trkpt lat="46.69709" lon="4.84193">
        <ele>193</ele>
        <time>2013-01-30T11:02:05Z</time>
      </trkpt>
      <trkpt lat="46.69722" lon="4.84187">
        <ele>190.8</ele>
        <time>2013-01-30T11:02:09Z</time>
      </trkpt>
      <trkpt lat="46.69737" lon="4.84179">
        <ele>190.1</ele>
        <time>2013-01-30T11:02:14Z</time>
      </trkpt>
      <trkpt lat="46.69746" lon="4.84174">
        <ele>191.5</ele>
        <time>2013-01-30T11:02:17Z</time>
      </trkpt>
      <trkpt lat="46.69761" lon="4.84167">
        <ele>194.2</ele>
        <time>2013-01-30T11:02:22Z</time>
      </trkpt>
      <trkpt lat="46.6977" lon="4.84162">
        <ele>187.1</ele>
        <time>2013-01-30T11:02:25Z</time>
      </trkpt>
      <trkpt lat="46.6978" lon="4.84157">
        <ele>188.5</ele>
        <time>2013-01-30T11:02:28Z</time>
      </trkpt>
      <trkpt lat="46.69789" lon="4.84154">
        <ele>183.9</ele>
        <time>2013-01-30T11:02:31Z</time>
      </trkpt>
      <trkpt lat="46.69803" lon="4.84146">
        <ele>191.6</ele>
        <time>2013-01-30T11:02:36Z</time>
      </trkpt>
      <trkpt lat="46.69817" lon="4.84137">
        <ele>185.2</ele>
        <time>2013-01-30T11:02:42Z</time>
      </trkpt>
      <trkpt lat="46.69826" lon="4.84133">
        <ele>188.8</ele>
        <time>2013-01-30T11:02:46Z</time>
      </trkpt>
      <trkpt lat="46.69839" lon="4.84127">
        <ele>192.7</ele>
        <time>2013-01-30T11:02:51Z</time>
      </trkpt>
      <trkpt lat="46.6985" lon="4.84121">
        <ele>195.8</ele>
        <time>2013-01-30T11:02:55Z</time>
      </trkpt>
      <trkpt lat="46.69856" lon="4.84118">
        <ele>193</ele>
        <time>2013-01-30T11:02:58Z</time>
      </trkpt>
      <trkpt lat="46.69861" lon="4.84117">
        <ele>188.2</ele>
        <time>2013-01-30T11:03:00Z</time>
      </trkpt>
      <trkpt lat="46.69876" lon="4.8411">
        <ele>187.1</ele>
        <time>2013-01-30T11:03:05Z</time>
      </trkpt>
      <trkpt lat="46.69885" lon="4.84106">
        <ele>184</ele>
        <time>2013-01-30T11:03:08Z</time>
      </trkpt>
      <trkpt lat="46.69896" lon="4.84101">
        <ele>190.3</ele>
        <time>2013-01-30T11:03:11Z</time>
      </trkpt>
      <trkpt lat="46.69905" lon="4.84097">
        <ele>190.8</ele>
        <time>2013-01-30T11:03:14Z</time>
      </trkpt>
      <trkpt lat="46.69914" lon="4.84094">
        <ele>189.1</ele>
        <time>2013-01-30T11:03:17Z</time>
      </trkpt>
      <trkpt lat="46.69924" lon="4.8409">
        <ele>188.7</ele>
        <time>2013-01-30T11:03:20Z</time>
      </trkpt>
      <trkpt lat="46.6994" lon="4.84085">
        <ele>191.2</ele>
        <time>2013-01-30T11:03:26Z</time>
      </trkpt>
      <trkpt lat="46.69955" lon="4.84084">
        <ele>198.2</ele>
        <time>2013-01-30T11:03:32Z</time>
      </trkpt>
      <trkpt lat="46.69961" lon="4.84085">
        <ele>194.3</ele>
        <time>2013-01-30T11:03:34Z</time>
      </trkpt>
      <trkpt lat="46.69967" lon="4.84086">
        <ele>192.2</ele>
        <time>2013-01-30T11:03:36Z</time>
      </trkpt>
      <trkpt lat="46.69973" lon="4.84089">
        <ele>192.9</ele>
        <time>2013-01-30T11:03:38Z</time>
      </trkpt>
      <trkpt lat="46.69979" lon="4.84092">
        <ele>193</ele>
        <time>2013-01-30T11:03:40Z</time>
      </trkpt>
      <trkpt lat="46.69984" lon="4.84096">
        <ele>190.7</ele>
        <time>2013-01-30T11:03:42Z</time>
      </trkpt>
      <trkpt lat="46.69989" lon="4.84099">
        <ele>194.7</ele>
        <time>2013-01-30T11:03:44Z</time>
      </trkpt>
      <trkpt lat="46.7" lon="4.84112">
        <ele>197</ele>
        <time>2013-01-30T11:03:49Z</time>
      </trkpt>
      <trkpt lat="46.70008" lon="4.84122">
        <ele>196.7</ele>
        <time>2013-01-30T11:03:53Z</time>
      </trkpt>
      <trkpt lat="46.70015" lon="4.84133">
        <ele>188.4</ele>
        <time>2013-01-30T11:03:57Z</time>
      </trkpt>
      <trkpt lat="46.7002" lon="4.84147">
        <ele>192.6</ele>
        <time>2013-01-30T11:04:01Z</time>
      </trkpt>
      <trkpt lat="46.70023" lon="4.84158">
        <ele>196.3</ele>
        <time>2013-01-30T11:04:04Z</time>
      </trkpt>
      <trkpt lat="46.70025" lon="4.84165">
        <ele>195.9</ele>
        <time>2013-01-30T11:04:06Z</time>
      </trkpt>
      <trkpt lat="46.70027" lon="4.84181">
        <ele>195.4</ele>
        <time>2013-01-30T11:04:10Z</time>
      </trkpt>
      <trkpt lat="46.70028" lon="4.84194">
        <ele>197.1</ele>
        <time>2013-01-30T11:04:13Z</time>
      </trkpt>
      <trkpt lat="46.7003" lon="4.84216">
        <ele>194.1</ele>
        <time>2013-01-30T11:04:18Z</time>
      </trkpt>
      <trkpt lat="46.70031" lon="4.84239">
        <ele>196.3</ele>
        <time>2013-01-30T11:04:24Z</time>
      </trkpt>
      <trkpt lat="46.70033" lon="4.8426">
        <ele>200.5</ele>
        <time>2013-01-30T11:04:29Z</time>
      </trkpt>
      <trkpt lat="46.70035" lon="4.84282">
        <ele>197.8</ele>
        <time>2013-01-30T11:04:34Z</time>
      </trkpt>
      <trkpt lat="46.70036" lon="4.84292">
        <ele>194.7</ele>
        <time>2013-01-30T11:04:36Z</time>
      </trkpt>
      <trkpt lat="46.70036" lon="4.843">
        <ele>199.1</ele>
        <time>2013-01-30T11:04:38Z</time>
      </trkpt>
      <trkpt lat="46.70036" lon="4.84309">
        <ele>200.9</ele>
        <time>2013-01-30T11:04:40Z</time>
      </trkpt>
      <trkpt lat="46.70036" lon="4.84318">
        <ele>197.3</ele>
        <time>2013-01-30T11:04:42Z</time>
      </trkpt>
      <trkpt lat="46.70037" lon="4.84328">
        <ele>198</ele>
        <time>2013-01-30T11:04:44Z</time>
      </trkpt>
      <trkpt lat="46.7004" lon="4.84347">
        <ele>197.2</ele>
        <time>2013-01-30T11:04:48Z</time>
      </trkpt>
      <trkpt lat="46.70042" lon="4.84363">
        <ele>203.7</ele>
        <time>2013-01-30T11:04:53Z</time>
      </trkpt>
      <trkpt lat="46.70043" lon="4.84384">
        <ele>195.2</ele>
        <time>2013-01-30T11:04:58Z</time>
      </trkpt>
      <trkpt lat="46.70045" lon="4.84407">
        <ele>193.7</ele>
        <time>2013-01-30T11:05:03Z</time>
      </trkpt>
      <trkpt lat="46.70047" lon="4.84431">
        <ele>192.8</ele>
        <time>2013-01-30T11:05:08Z</time>
      </trkpt>
      <trkpt lat="46.70048" lon="4.8444">
        <ele>189.6</ele>
        <time>2013-01-30T11:05:10Z</time>
      </trkpt>
      <trkpt lat="46.70049" lon="4.84451">
        <ele>191.4</ele>
        <time>2013-01-30T11:05:13Z</time>
      </trkpt>
      <trkpt lat="46.7005" lon="4.84459">
        <ele>189</ele>
        <time>2013-01-30T11:05:15Z</time>
      </trkpt>
      <trkpt lat="46.7005" lon="4.84467">
        <ele>190</ele>
        <time>2013-01-30T11:05:17Z</time>
      </trkpt>
      <trkpt lat="46.70047" lon="4.84473">
        <ele>195.8</ele>
        <time>2013-01-30T11:05:19Z</time>
      </trkpt>
      <trkpt lat="46.70043" lon="4.84476">
        <ele>196.8</ele>
        <time>2013-01-30T11:05:21Z</time>
      </trkpt>
      <trkpt lat="46.70033" lon="4.8447">
        <ele>195.7</ele>
        <time>2013-01-30T11:05:25Z</time>
      </trkpt>
      <trkpt lat="46.70025" lon="4.84458">
        <ele>196.9</ele>
        <time>2013-01-30T11:05:29Z</time>
      </trkpt>
      <trkpt lat="46.70018" lon="4.84443">
        <ele>191.9</ele>
        <time>2013-01-30T11:05:33Z</time>
      </trkpt>
      <trkpt lat="46.70008" lon="4.84431">
        <ele>188.8</ele>
        <time>2013-01-30T11:05:37Z</time>
      </trkpt>
      <trkpt lat="46.7" lon="4.84414">
        <ele>187.7</ele>
        <time>2013-01-30T11:05:42Z</time>
      </trkpt>
      <trkpt lat="46.69997" lon="4.84407">
        <ele>190.5</ele>
        <time>2013-01-30T11:05:44Z</time>
      </trkpt>
      <trkpt lat="46.69993" lon="4.844">
        <ele>189.8</ele>
        <time>2013-01-30T11:05:46Z</time>
      </trkpt>
      <trkpt lat="46.69989" lon="4.84394">
        <ele>189.7</ele>
        <time>2013-01-30T11:05:48Z</time>
      </trkpt>
      <trkpt lat="46.69981" lon="4.84384">
        <ele>189.3</ele>
        <time>2013-01-30T11:05:52Z</time>
      </trkpt>
      <trkpt lat="46.69977" lon="4.8438">
        <ele>189.7</ele>
        <time>2013-01-30T11:05:54Z</time>
      </trkpt>
      <trkpt lat="46.69971" lon="4.84376">
        <ele>188.8</ele>
        <time>2013-01-30T11:05:56Z</time>
      </trkpt>
      <trkpt lat="46.69966" lon="4.84373">
        <ele>184.1</ele>
        <time>2013-01-30T11:05:58Z</time>
      </trkpt>
      <trkpt lat="46.69957" lon="4.84368">
        <ele>183.8</ele>
        <time>2013-01-30T11:06:02Z</time>
      </trkpt>
      <trkpt lat="46.69944" lon="4.84362">
        <ele>179.6</ele>
        <time>2013-01-30T11:06:07Z</time>
      </trkpt>
      <trkpt lat="46.69931" lon="4.84357">
        <ele>185.5</ele>
        <time>2013-01-30T11:06:12Z</time>
      </trkpt>
      <trkpt lat="46.69922" lon="4.84354">
        <ele>186.6</ele>
        <time>2013-01-30T11:06:15Z</time>
      </trkpt>
      <trkpt lat="46.69913" lon="4.84351">
        <ele>188.2</ele>
        <time>2013-01-30T11:06:18Z</time>
      </trkpt>
      <trkpt lat="46.69902" lon="4.84349">
        <ele>189</ele>
        <time>2013-01-30T11:06:22Z</time>
      </trkpt>
      <trkpt lat="46.6989" lon="4.84346">
        <ele>191.3</ele>
        <time>2013-01-30T11:06:26Z</time>
      </trkpt>
      <trkpt lat="46.69879" lon="4.84343">
        <ele>189.3</ele>
        <time>2013-01-30T11:06:30Z</time>
      </trkpt>
      <trkpt lat="46.69864" lon="4.84338">
        <ele>184.8</ele>
        <time>2013-01-30T11:06:36Z</time>
      </trkpt>
      <trkpt lat="46.69853" lon="4.84335">
        <ele>188.8</ele>
        <time>2013-01-30T11:06:40Z</time>
      </trkpt>
      <trkpt lat="46.69844" lon="4.84333">
        <ele>189</ele>
        <time>2013-01-30T11:06:43Z</time>
      </trkpt>
      <trkpt lat="46.69834" lon="4.84332">
        <ele>187.8</ele>
        <time>2013-01-30T11:06:46Z</time>
      </trkpt>
      <trkpt lat="46.6982" lon="4.84331">
        <ele>184.5</ele>
        <time>2013-01-30T11:06:51Z</time>
      </trkpt>
      <trkpt lat="46.69805" lon="4.8433">
        <ele>191.3</ele>
        <time>2013-01-30T11:06:56Z</time>
      </trkpt>
      <trkpt lat="46.69792" lon="4.84332">
        <ele>189.4</ele>
        <time>2013-01-30T11:07:01Z</time>
      </trkpt>
      <trkpt lat="46.69781" lon="4.84333">
        <ele>191.5</ele>
        <time>2013-01-30T11:07:05Z</time>
      </trkpt>
      <trkpt lat="46.69775" lon="4.84332">
        <ele>185.2</ele>
        <time>2013-01-30T11:07:08Z</time>
      </trkpt>
      <trkpt lat="46.69769" lon="4.84334">
        <ele>188.6</ele>
        <time>2013-01-30T11:07:11Z</time>
      </trkpt>
      <trkpt lat="46.69763" lon="4.84335">
        <ele>189.3</ele>
        <time>2013-01-30T11:07:13Z</time>
      </trkpt>
      <trkpt lat="46.69756" lon="4.84336">
        <ele>185.7</ele>
        <time>2013-01-30T11:07:15Z</time>
      </trkpt>
      <trkpt lat="46.6975" lon="4.84339">
        <ele>188.6</ele>
        <time>2013-01-30T11:07:17Z</time>
      </trkpt>
      <trkpt lat="46.69743" lon="4.84339">
        <ele>191.8</ele>
        <time>2013-01-30T11:07:19Z</time>
      </trkpt>
      <trkpt lat="46.69736" lon="4.84341">
        <ele>189.9</ele>
        <time>2013-01-30T11:07:21Z</time>
      </trkpt>
      <trkpt lat="46.69731" lon="4.84343">
        <ele>187.4</ele>
        <time>2013-01-30T11:07:23Z</time>
      </trkpt>
      <trkpt lat="46.69721" lon="4.84345">
        <ele>187.3</ele>
        <time>2013-01-30T11:07:27Z</time>
      </trkpt>
      <trkpt lat="46.69705" lon="4.84345">
        <ele>190.6</ele>
        <time>2013-01-30T11:07:33Z</time>
      </trkpt>
      <trkpt lat="46.69696" lon="4.84346">
        <ele>185</ele>
        <time>2013-01-30T11:07:36Z</time>
      </trkpt>
      <trkpt lat="46.69684" lon="4.84349">
        <ele>188.2</ele>
        <time>2013-01-30T11:07:40Z</time>
      </trkpt>
      <trkpt lat="46.69672" lon="4.84351">
        <ele>189.6</ele>
        <time>2013-01-30T11:07:44Z</time>
      </trkpt>
      <trkpt lat="46.69657" lon="4.84353">
        <ele>185.1</ele>
        <time>2013-01-30T11:07:49Z</time>
      </trkpt>
      <trkpt lat="46.69644" lon="4.84356">
        <ele>186.9</ele>
        <time>2013-01-30T11:07:54Z</time>
      </trkpt>
      <trkpt lat="46.69632" lon="4.84358">
        <ele>186.4</ele>
        <time>2013-01-30T11:07:58Z</time>
      </trkpt>
      <trkpt lat="46.69616" lon="4.84362">
        <ele>186.7</ele>
        <time>2013-01-30T11:08:04Z</time>
      </trkpt>
      <trkpt lat="46.69602" lon="4.84366">
        <ele>191.5</ele>
        <time>2013-01-30T11:08:09Z</time>
      </trkpt>
      <trkpt lat="46.69589" lon="4.84372">
        <ele>188</ele>
        <time>2013-01-30T11:08:14Z</time>
      </trkpt>
      <trkpt lat="46.69584" lon="4.84376">
        <ele>186.2</ele>
        <time>2013-01-30T11:08:16Z</time>
      </trkpt>
      <trkpt lat="46.69579" lon="4.84381">
        <ele>186.3</ele>
        <time>2013-01-30T11:08:18Z</time>
      </trkpt>
      <trkpt lat="46.69576" lon="4.84388">
        <ele>186.6</ele>
        <time>2013-01-30T11:08:20Z</time>
      </trkpt>
      <trkpt lat="46.6957" lon="4.84406">
        <ele>181.5</ele>
        <time>2013-01-30T11:08:25Z</time>
      </trkpt>
      <trkpt lat="46.69568" lon="4.84414">
        <ele>182</ele>
        <time>2013-01-30T11:08:27Z</time>
      </trkpt>
      <trkpt lat="46.69566" lon="4.84422">
        <ele>184.2</ele>
        <time>2013-01-30T11:08:29Z</time>
      </trkpt>
      <trkpt lat="46.69566" lon="4.8443">
        <ele>187.5</ele>
        <time>2013-01-30T11:08:31Z</time>
      </trkpt>
      <trkpt lat="46.69565" lon="4.84444">
        <ele>189.1</ele>
        <time>2013-01-30T11:08:35Z</time>
      </trkpt>
      <trkpt lat="46.69565" lon="4.84465">
        <ele>192</ele>
        <time>2013-01-30T11:08:40Z</time>
      </trkpt>
      <trkpt lat="46.69568" lon="4.84487">
        <ele>188.5</ele>
        <time>2013-01-30T11:08:45Z</time>
      </trkpt>
      <trkpt lat="46.6957" lon="4.84507">
        <ele>189</ele>
        <time>2013-01-30T11:08:50Z</time>
      </trkpt>
      <trkpt lat="46.69571" lon="4.84527">
        <ele>181.9</ele>
        <time>2013-01-30T11:08:55Z</time>
      </trkpt>
      <trkpt lat="46.69572" lon="4.84543">
        <ele>183.2</ele>
        <time>2013-01-30T11:08:59Z</time>
      </trkpt>
      <trkpt lat="46.69575" lon="4.84558">
        <ele>184.3</ele>
        <time>2013-01-30T11:09:04Z</time>
      </trkpt>
      <trkpt lat="46.69577" lon="4.84579">
        <ele>184</ele>
        <time>2013-01-30T11:09:10Z</time>
      </trkpt>
      <trkpt lat="46.69577" lon="4.84587">
        <ele>186.5</ele>
        <time>2013-01-30T11:09:12Z</time>
      </trkpt>
      <trkpt lat="46.69578" lon="4.84601">
        <ele>190.6</ele>
        <time>2013-01-30T11:09:15Z</time>
      </trkpt>
      <trkpt lat="46.69579" lon="4.84618">
        <ele>185.8</ele>
        <time>2013-01-30T11:09:19Z</time>
      </trkpt>
      <trkpt lat="46.69579" lon="4.84641">
        <ele>185</ele>
        <time>2013-01-30T11:09:24Z</time>
      </trkpt>
      <trkpt lat="46.6958" lon="4.84664">
        <ele>186.8</ele>
        <time>2013-01-30T11:09:30Z</time>
      </trkpt>
      <trkpt lat="46.69581" lon="4.84688">
        <ele>187</ele>
        <time>2013-01-30T11:09:35Z</time>
      </trkpt>
      <trkpt lat="46.69581" lon="4.84701">
        <ele>191.2</ele>
        <time>2013-01-30T11:09:38Z</time>
      </trkpt>
      <trkpt lat="46.69582" lon="4.84717">
        <ele>184.6</ele>
        <time>2013-01-30T11:09:42Z</time>
      </trkpt>
      <trkpt lat="46.69585" lon="4.84739">
        <ele>183.1</ele>
        <time>2013-01-30T11:09:48Z</time>
      </trkpt>
      <trkpt lat="46.69587" lon="4.8476">
        <ele>188.3</ele>
        <time>2013-01-30T11:09:53Z</time>
      </trkpt>
      <trkpt lat="46.69587" lon="4.84776">
        <ele>189.9</ele>
        <time>2013-01-30T11:09:57Z</time>
      </trkpt>
      <trkpt lat="46.69589" lon="4.84797">
        <ele>194.1</ele>
        <time>2013-01-30T11:10:02Z</time>
      </trkpt>
      <trkpt lat="46.69589" lon="4.84805">
        <ele>191.9</ele>
        <time>2013-01-30T11:10:04Z</time>
      </trkpt>
      <trkpt lat="46.69589" lon="4.84813">
        <ele>191</ele>
        <time>2013-01-30T11:10:06Z</time>
      </trkpt>
      <trkpt lat="46.69589" lon="4.84821">
        <ele>186.5</ele>
        <time>2013-01-30T11:10:08Z</time>
      </trkpt>
      <trkpt lat="46.69591" lon="4.84835">
        <ele>190.5</ele>
        <time>2013-01-30T11:10:12Z</time>
      </trkpt>
      <trkpt lat="46.69592" lon="4.84856">
        <ele>193.5</ele>
        <time>2013-01-30T11:10:17Z</time>
      </trkpt>
      <trkpt lat="46.69593" lon="4.84876">
        <ele>189.8</ele>
        <time>2013-01-30T11:10:22Z</time>
      </trkpt>
      <trkpt lat="46.69594" lon="4.84895">
        <ele>190.5</ele>
        <time>2013-01-30T11:10:27Z</time>
      </trkpt>
      <trkpt lat="46.69595" lon="4.84914">
        <ele>185.4</ele>
        <time>2013-01-30T11:10:32Z</time>
      </trkpt>
      <trkpt lat="46.69595" lon="4.84935">
        <ele>185.1</ele>
        <time>2013-01-30T11:10:37Z</time>
      </trkpt>
      <trkpt lat="46.69596" lon="4.84957">
        <ele>186.2</ele>
        <time>2013-01-30T11:10:42Z</time>
      </trkpt>
      <trkpt lat="46.69596" lon="4.84974">
        <ele>185.1</ele>
        <time>2013-01-30T11:10:46Z</time>
      </trkpt>
      <trkpt lat="46.69598" lon="4.84994">
        <ele>182</ele>
        <time>2013-01-30T11:10:51Z</time>
      </trkpt>
      <trkpt lat="46.69598" lon="4.85016">
        <ele>175.8</ele>
        <time>2013-01-30T11:10:56Z</time>
      </trkpt>
      <trkpt lat="46.69597" lon="4.85035">
        <ele>181.4</ele>
        <time>2013-01-30T11:11:01Z</time>
      </trkpt>
      <trkpt lat="46.69593" lon="4.85061">
        <ele>183.1</ele>
        <time>2013-01-30T11:11:07Z</time>
      </trkpt>
      <trkpt lat="46.69591" lon="4.85076">
        <ele>182.4</ele>
        <time>2013-01-30T11:11:11Z</time>
      </trkpt>
      <trkpt lat="46.69588" lon="4.85083">
        <ele>184.5</ele>
        <time>2013-01-30T11:11:13Z</time>
      </trkpt>
      <trkpt lat="46.69584" lon="4.85089">
        <ele>188.7</ele>
        <time>2013-01-30T11:11:15Z</time>
      </trkpt>
      <trkpt lat="46.69577" lon="4.85096">
        <ele>187.7</ele>
        <time>2013-01-30T11:11:18Z</time>
      </trkpt>
      <trkpt lat="46.69572" lon="4.851">
        <ele>187.1</ele>
        <time>2013-01-30T11:11:20Z</time>
      </trkpt>
      <trkpt lat="46.69557" lon="4.85112">
        <ele>191.3</ele>
        <time>2013-01-30T11:11:26Z</time>
      </trkpt>
      <trkpt lat="46.69545" lon="4.85123">
        <ele>192.8</ele>
        <time>2013-01-30T11:11:31Z</time>
      </trkpt>
      <trkpt lat="46.69535" lon="4.85133">
        <ele>186.9</ele>
        <time>2013-01-30T11:11:36Z</time>
      </trkpt>
      <trkpt lat="46.69522" lon="4.85145">
        <ele>185</ele>
        <time>2013-01-30T11:11:41Z</time>
      </trkpt>
      <trkpt lat="46.69513" lon="4.85152">
        <ele>179.1</ele>
        <time>2013-01-30T11:11:45Z</time>
      </trkpt>
      <trkpt lat="46.69504" lon="4.8516">
        <ele>184.2</ele>
        <time>2013-01-30T11:11:49Z</time>
      </trkpt>
      <trkpt lat="46.69495" lon="4.8517">
        <ele>184.3</ele>
        <time>2013-01-30T11:11:53Z</time>
      </trkpt>
      <trkpt lat="46.69482" lon="4.85181">
        <ele>184.3</ele>
        <time>2013-01-30T11:11:58Z</time>
      </trkpt>
      <trkpt lat="46.69471" lon="4.85192">
        <ele>180.8</ele>
        <time>2013-01-30T11:12:03Z</time>
      </trkpt>
      <trkpt lat="46.69461" lon="4.85202">
        <ele>183.6</ele>
        <time>2013-01-30T11:12:07Z</time>
      </trkpt>
      <trkpt lat="46.69448" lon="4.85213">
        <ele>189.7</ele>
        <time>2013-01-30T11:12:13Z</time>
      </trkpt>
      <trkpt lat="46.69435" lon="4.85224">
        <ele>189.2</ele>
        <time>2013-01-30T11:12:19Z</time>
      </trkpt>
      <trkpt lat="46.69425" lon="4.85231">
        <ele>185.1</ele>
        <time>2013-01-30T11:12:23Z</time>
      </trkpt>
      <trkpt lat="46.69415" lon="4.85239">
        <ele>185.5</ele>
        <time>2013-01-30T11:12:27Z</time>
      </trkpt>
      <trkpt lat="46.69404" lon="4.85248">
        <ele>186.9</ele>
        <time>2013-01-30T11:12:32Z</time>
      </trkpt>
      <trkpt lat="46.69394" lon="4.85258">
        <ele>185.1</ele>
        <time>2013-01-30T11:12:36Z</time>
      </trkpt>
      <trkpt lat="46.69383" lon="4.8527">
        <ele>189.1</ele>
        <time>2013-01-30T11:12:41Z</time>
      </trkpt>
      <trkpt lat="46.69371" lon="4.85283">
        <ele>186</ele>
        <time>2013-01-30T11:12:46Z</time>
      </trkpt>
      <trkpt lat="46.69358" lon="4.85296">
        <ele>187.1</ele>
        <time>2013-01-30T11:12:51Z</time>
      </trkpt>
      <trkpt lat="46.69355" lon="4.85302">
        <ele>189.7</ele>
        <time>2013-01-30T11:12:53Z</time>
      </trkpt>
      <trkpt lat="46.69352" lon="4.85308">
        <ele>186.3</ele>
        <time>2013-01-30T11:12:55Z</time>
      </trkpt>
      <trkpt lat="46.69348" lon="4.85315">
        <ele>185.5</ele>
        <time>2013-01-30T11:12:57Z</time>
      </trkpt>
      <trkpt lat="46.69343" lon="4.8533">
        <ele>183.9</ele>
        <time>2013-01-30T11:13:01Z</time>
      </trkpt>
      <trkpt lat="46.6934" lon="4.85338">
        <ele>187.9</ele>
        <time>2013-01-30T11:13:03Z</time>
      </trkpt>
      <trkpt lat="46.69339" lon="4.85344">
        <ele>184</ele>
        <time>2013-01-30T11:13:05Z</time>
      </trkpt>
      <trkpt lat="46.69337" lon="4.85352">
        <ele>185.8</ele>
        <time>2013-01-30T11:13:07Z</time>
      </trkpt>
      <trkpt lat="46.69337" lon="4.85366">
        <ele>190.1</ele>
        <time>2013-01-30T11:13:11Z</time>
      </trkpt>
      <trkpt lat="46.69336" lon="4.85386">
        <ele>185.6</ele>
        <time>2013-01-30T11:13:16Z</time>
      </trkpt>
      <trkpt lat="46.69335" lon="4.85407">
        <ele>186.2</ele>
        <time>2013-01-30T11:13:21Z</time>
      </trkpt>
      <trkpt lat="46.69333" lon="4.85428">
        <ele>181.8</ele>
        <time>2013-01-30T11:13:26Z</time>
      </trkpt>
      <trkpt lat="46.69331" lon="4.85448">
        <ele>181.4</ele>
        <time>2013-01-30T11:13:30Z</time>
      </trkpt>
      <trkpt lat="46.69329" lon="4.85467">
        <ele>183.5</ele>
        <time>2013-01-30T11:13:35Z</time>
      </trkpt>
      <trkpt lat="46.69327" lon="4.85488">
        <ele>182.4</ele>
        <time>2013-01-30T11:13:40Z</time>
      </trkpt>
      <trkpt lat="46.69325" lon="4.85508">
        <ele>184.1</ele>
        <time>2013-01-30T11:13:45Z</time>
      </trkpt>
      <trkpt lat="46.69325" lon="4.85515">
        <ele>183</ele>
        <time>2013-01-30T11:13:47Z</time>
      </trkpt>
      <trkpt lat="46.69324" lon="4.85527">
        <ele>184.4</ele>
        <time>2013-01-30T11:13:50Z</time>
      </trkpt>
      <trkpt lat="46.69322" lon="4.85545">
        <ele>183.6</ele>
        <time>2013-01-30T11:13:54Z</time>
      </trkpt>
      <trkpt lat="46.6932" lon="4.85562">
        <ele>186.1</ele>
        <time>2013-01-30T11:13:58Z</time>
      </trkpt>
      <trkpt lat="46.69319" lon="4.85575">
        <ele>189.3</ele>
        <time>2013-01-30T11:14:02Z</time>
      </trkpt>
      <trkpt lat="46.69317" lon="4.85591">
        <ele>184.2</ele>
        <time>2013-01-30T11:14:06Z</time>
      </trkpt>
      <trkpt lat="46.69315" lon="4.8561">
        <ele>184.8</ele>
        <time>2013-01-30T11:14:11Z</time>
      </trkpt>
      <trkpt lat="46.69314" lon="4.85616">
        <ele>185.8</ele>
        <time>2013-01-30T11:14:13Z</time>
      </trkpt>
      <trkpt lat="46.69313" lon="4.85623">
        <ele>184.9</ele>
        <time>2013-01-30T11:14:15Z</time>
      </trkpt>
      <trkpt lat="46.69313" lon="4.8563">
        <ele>187.7</ele>
        <time>2013-01-30T11:14:17Z</time>
      </trkpt>
      <trkpt lat="46.69312" lon="4.85651">
        <ele>186.6</ele>
        <time>2013-01-30T11:14:22Z</time>
      </trkpt>
      <trkpt lat="46.69312" lon="4.85667">
        <ele>183.3</ele>
        <time>2013-01-30T11:14:26Z</time>
      </trkpt>
      <trkpt lat="46.69311" lon="4.8569">
        <ele>180.7</ele>
        <time>2013-01-30T11:14:31Z</time>
      </trkpt>
      <trkpt lat="46.69307" lon="4.85714">
        <ele>183.4</ele>
        <time>2013-01-30T11:14:37Z</time>
      </trkpt>
      <trkpt lat="46.69305" lon="4.85731">
        <ele>178.7</ele>
        <time>2013-01-30T11:14:42Z</time>
      </trkpt>
      <trkpt lat="46.69302" lon="4.85752">
        <ele>184.7</ele>
        <time>2013-01-30T11:14:47Z</time>
      </trkpt>
      <trkpt lat="46.693" lon="4.85766">
        <ele>182.2</ele>
        <time>2013-01-30T11:14:51Z</time>
      </trkpt>
      <trkpt lat="46.69297" lon="4.85782">
        <ele>186.4</ele>
        <time>2013-01-30T11:14:55Z</time>
      </trkpt>
      <trkpt lat="46.69296" lon="4.8579">
        <ele>185</ele>
        <time>2013-01-30T11:14:57Z</time>
      </trkpt>
      <trkpt lat="46.69294" lon="4.85801">
        <ele>187.3</ele>
        <time>2013-01-30T11:15:00Z</time>
      </trkpt>
      <trkpt lat="46.69291" lon="4.8582">
        <ele>189</ele>
        <time>2013-01-30T11:15:05Z</time>
      </trkpt>
      <trkpt lat="46.69288" lon="4.85836">
        <ele>185.4</ele>
        <time>2013-01-30T11:15:09Z</time>
      </trkpt>
      <trkpt lat="46.69284" lon="4.85857">
        <ele>182.1</ele>
        <time>2013-01-30T11:15:15Z</time>
      </trkpt>
      <trkpt lat="46.6928" lon="4.85879">
        <ele>187.3</ele>
        <time>2013-01-30T11:15:21Z</time>
      </trkpt>
      <trkpt lat="46.69279" lon="4.85885">
        <ele>185.4</ele>
        <time>2013-01-30T11:15:23Z</time>
      </trkpt>
      <trkpt lat="46.69277" lon="4.85894">
        <ele>189.4</ele>
        <time>2013-01-30T11:15:25Z</time>
      </trkpt>
      <trkpt lat="46.69273" lon="4.85908">
        <ele>180.8</ele>
        <time>2013-01-30T11:15:29Z</time>
      </trkpt>
      <trkpt lat="46.6927" lon="4.85915">
        <ele>184.7</ele>
        <time>2013-01-30T11:15:31Z</time>
      </trkpt>
      <trkpt lat="46.69267" lon="4.85921">
        <ele>183.2</ele>
        <time>2013-01-30T11:15:33Z</time>
      </trkpt>
      <trkpt lat="46.69262" lon="4.85925">
        <ele>184.3</ele>
        <time>2013-01-30T11:15:35Z</time>
      </trkpt>
      <trkpt lat="46.69257" lon="4.85928">
        <ele>184</ele>
        <time>2013-01-30T11:15:37Z</time>
      </trkpt>
      <trkpt lat="46.69244" lon="4.85929">
        <ele>184.8</ele>
        <time>2013-01-30T11:15:42Z</time>
      </trkpt>
      <trkpt lat="46.69234" lon="4.85926">
        <ele>184</ele>
        <time>2013-01-30T11:15:46Z</time>
      </trkpt>
      <trkpt lat="46.69224" lon="4.85923">
        <ele>185.2</ele>
        <time>2013-01-30T11:15:50Z</time>
      </trkpt>
      <trkpt lat="46.69214" lon="4.85918">
        <ele>183.6</ele>
        <time>2013-01-30T11:15:54Z</time>
      </trkpt>
      <trkpt lat="46.692" lon="4.85913">
        <ele>185.5</ele>
        <time>2013-01-30T11:15:59Z</time>
      </trkpt>
      <trkpt lat="46.6919" lon="4.85909">
        <ele>186.7</ele>
        <time>2013-01-30T11:16:03Z</time>
      </trkpt>
      <trkpt lat="46.69179" lon="4.85906">
        <ele>193.6</ele>
        <time>2013-01-30T11:16:07Z</time>
      </trkpt>
      <trkpt lat="46.69167" lon="4.85902">
        <ele>189.5</ele>
        <time>2013-01-30T11:16:12Z</time>
      </trkpt>
      <trkpt lat="46.69154" lon="4.85897">
        <ele>186.7</ele>
        <time>2013-01-30T11:16:17Z</time>
      </trkpt>
      <trkpt lat="46.6914" lon="4.85896">
        <ele>182.8</ele>
        <time>2013-01-30T11:16:22Z</time>
      </trkpt>
      <trkpt lat="46.6913" lon="4.85894">
        <ele>188.8</ele>
        <time>2013-01-30T11:16:26Z</time>
      </trkpt>
      <trkpt lat="46.69119" lon="4.85892">
        <ele>182.1</ele>
        <time>2013-01-30T11:16:30Z</time>
      </trkpt>
      <trkpt lat="46.69107" lon="4.85887">
        <ele>188.4</ele>
        <time>2013-01-30T11:16:35Z</time>
      </trkpt>
      <trkpt lat="46.69095" lon="4.85883">
        <ele>186.2</ele>
        <time>2013-01-30T11:16:39Z</time>
      </trkpt>
      <trkpt lat="46.69086" lon="4.85874">
        <ele>185.8</ele>
        <time>2013-01-30T11:16:43Z</time>
      </trkpt>
      <trkpt lat="46.69077" lon="4.85862">
        <ele>191.5</ele>
        <time>2013-01-30T11:16:47Z</time>
      </trkpt>
      <trkpt lat="46.69068" lon="4.85853">
        <ele>186.9</ele>
        <time>2013-01-30T11:16:51Z</time>
      </trkpt>
      <trkpt lat="46.6906" lon="4.85845">
        <ele>184.9</ele>
        <time>2013-01-30T11:16:55Z</time>
      </trkpt>
      <trkpt lat="46.6905" lon="4.85836">
        <ele>186.6</ele>
        <time>2013-01-30T11:16:59Z</time>
      </trkpt>
      <trkpt lat="46.69039" lon="4.85825">
        <ele>183.1</ele>
        <time>2013-01-30T11:17:04Z</time>
      </trkpt>
      <trkpt lat="46.69035" lon="4.85821">
        <ele>187.2</ele>
        <time>2013-01-30T11:17:06Z</time>
      </trkpt>
      <trkpt lat="46.69031" lon="4.85817">
        <ele>195.5</ele>
        <time>2013-01-30T11:17:08Z</time>
      </trkpt>
      <trkpt lat="46.69025" lon="4.85813">
        <ele>189.9</ele>
        <time>2013-01-30T11:17:10Z</time>
      </trkpt>
      <trkpt lat="46.69012" lon="4.85802">
        <ele>191</ele>
        <time>2013-01-30T11:17:15Z</time>
      </trkpt>
      <trkpt lat="46.69002" lon="4.85792">
        <ele>186.3</ele>
        <time>2013-01-30T11:17:20Z</time>
      </trkpt>
      <trkpt lat="46.68994" lon="4.85786">
        <ele>190.6</ele>
        <time>2013-01-30T11:17:24Z</time>
      </trkpt>
      <trkpt lat="46.68986" lon="4.85778">
        <ele>186.6</ele>
        <time>2013-01-30T11:17:27Z</time>
      </trkpt>
      <trkpt lat="46.68978" lon="4.85766">
        <ele>183.7</ele>
        <time>2013-01-30T11:17:31Z</time>
      </trkpt>
      <trkpt lat="46.68966" lon="4.85752">
        <ele>192</ele>
        <time>2013-01-30T11:17:37Z</time>
      </trkpt>
      <trkpt lat="46.68962" lon="4.85747">
        <ele>198.2</ele>
        <time>2013-01-30T11:17:39Z</time>
      </trkpt>
      <trkpt lat="46.68956" lon="4.85739">
        <ele>193.5</ele>
        <time>2013-01-30T11:17:42Z</time>
      </trkpt>
      <trkpt lat="46.68948" lon="4.85726">
        <ele>194.9</ele>
        <time>2013-01-30T11:17:46Z</time>
      </trkpt>
      <trkpt lat="46.68938" lon="4.85711">
        <ele>190.7</ele>
        <time>2013-01-30T11:17:51Z</time>
      </trkpt>
      <trkpt lat="46.68929" lon="4.85694">
        <ele>189.2</ele>
        <time>2013-01-30T11:17:57Z</time>
      </trkpt>
      <trkpt lat="46.68921" lon="4.85682">
        <ele>193.1</ele>
        <time>2013-01-30T11:18:02Z</time>
      </trkpt>
      <trkpt lat="46.68913" lon="4.85668">
        <ele>193.1</ele>
        <time>2013-01-30T11:18:07Z</time>
      </trkpt>
      <trkpt lat="46.68901" lon="4.8565">
        <ele>190.7</ele>
        <time>2013-01-30T11:18:13Z</time>
      </trkpt>
      <trkpt lat="46.68889" lon="4.85634">
        <ele>188.4</ele>
        <time>2013-01-30T11:18:19Z</time>
      </trkpt>
      <trkpt lat="46.68877" lon="4.85621">
        <ele>189.2</ele>
        <time>2013-01-30T11:18:25Z</time>
      </trkpt>
      <trkpt lat="46.68869" lon="4.85611">
        <ele>187.7</ele>
        <time>2013-01-30T11:18:29Z</time>
      </trkpt>
      <trkpt lat="46.68865" lon="4.85606">
        <ele>187.6</ele>
        <time>2013-01-30T11:18:31Z</time>
      </trkpt>
      <trkpt lat="46.68861" lon="4.85601">
        <ele>189.3</ele>
        <time>2013-01-30T11:18:33Z</time>
      </trkpt>
      <trkpt lat="46.68856" lon="4.85595">
        <ele>185</ele>
        <time>2013-01-30T11:18:35Z</time>
      </trkpt>
      <trkpt lat="46.68845" lon="4.85581">
        <ele>190.6</ele>
        <time>2013-01-30T11:18:40Z</time>
      </trkpt>
      <trkpt lat="46.68833" lon="4.85566">
        <ele>192.9</ele>
        <time>2013-01-30T11:18:46Z</time>
      </trkpt>
      <trkpt lat="46.68821" lon="4.85551">
        <ele>198.2</ele>
        <time>2013-01-30T11:18:52Z</time>
      </trkpt>
      <trkpt lat="46.68817" lon="4.85545">
        <ele>196.7</ele>
        <time>2013-01-30T11:18:54Z</time>
      </trkpt>
      <trkpt lat="46.6881" lon="4.85537">
        <ele>190.4</ele>
        <time>2013-01-30T11:18:58Z</time>
      </trkpt>
      <trkpt lat="46.68806" lon="4.85532">
        <ele>187.4</ele>
        <time>2013-01-30T11:19:00Z</time>
      </trkpt>
      <trkpt lat="46.68801" lon="4.85526">
        <ele>187</ele>
        <time>2013-01-30T11:19:02Z</time>
      </trkpt>
      <trkpt lat="46.68797" lon="4.85522">
        <ele>188.6</ele>
        <time>2013-01-30T11:19:04Z</time>
      </trkpt>
      <trkpt lat="46.68792" lon="4.85516">
        <ele>184.7</ele>
        <time>2013-01-30T11:19:06Z</time>
      </trkpt>
      <trkpt lat="46.68787" lon="4.8551">
        <ele>188.2</ele>
        <time>2013-01-30T11:19:08Z</time>
      </trkpt>
      <trkpt lat="46.68777" lon="4.85497">
        <ele>190.1</ele>
        <time>2013-01-30T11:19:13Z</time>
      </trkpt>
      <trkpt lat="46.68766" lon="4.85483">
        <ele>192.7</ele>
        <time>2013-01-30T11:19:18Z</time>
      </trkpt>
      <trkpt lat="46.68756" lon="4.85468">
        <ele>192.7</ele>
        <time>2013-01-30T11:19:23Z</time>
      </trkpt>
      <trkpt lat="46.68747" lon="4.85456">
        <ele>191.7</ele>
        <time>2013-01-30T11:19:28Z</time>
      </trkpt>
      <trkpt lat="46.68736" lon="4.85443">
        <ele>192.5</ele>
        <time>2013-01-30T11:19:33Z</time>
      </trkpt>
      <trkpt lat="46.68728" lon="4.85435">
        <ele>192.8</ele>
        <time>2013-01-30T11:19:37Z</time>
      </trkpt>
      <trkpt lat="46.68716" lon="4.85421">
        <ele>190.7</ele>
        <time>2013-01-30T11:19:42Z</time>
      </trkpt>
      <trkpt lat="46.68712" lon="4.85415">
        <ele>189.5</ele>
        <time>2013-01-30T11:19:44Z</time>
      </trkpt>
      <trkpt lat="46.68706" lon="4.85406">
        <ele>189.8</ele>
        <time>2013-01-30T11:19:47Z</time>
      </trkpt>
      <trkpt lat="46.68695" lon="4.85389">
        <ele>185.1</ele>
        <time>2013-01-30T11:19:53Z</time>
      </trkpt>
      <trkpt lat="46.68692" lon="4.85382">
        <ele>181</ele>
        <time>2013-01-30T11:19:55Z</time>
      </trkpt>
      <trkpt lat="46.68687" lon="4.8537">
        <ele>188.5</ele>
        <time>2013-01-30T11:19:58Z</time>
      </trkpt>
      <trkpt lat="46.68679" lon="4.85353">
        <ele>187.3</ele>
        <time>2013-01-30T11:20:03Z</time>
      </trkpt>
      <trkpt lat="46.68672" lon="4.85336">
        <ele>188.5</ele>
        <time>2013-01-30T11:20:08Z</time>
      </trkpt>
      <trkpt lat="46.68666" lon="4.85319">
        <ele>186.7</ele>
        <time>2013-01-30T11:20:13Z</time>
      </trkpt>
      <trkpt lat="46.68659" lon="4.853">
        <ele>190.1</ele>
        <time>2013-01-30T11:20:19Z</time>
      </trkpt>
      <trkpt lat="46.68652" lon="4.85281">
        <ele>184.9</ele>
        <time>2013-01-30T11:20:24Z</time>
      </trkpt>
      <trkpt lat="46.68646" lon="4.85264">
        <ele>187</ele>
        <time>2013-01-30T11:20:29Z</time>
      </trkpt>
      <trkpt lat="46.68644" lon="4.85256">
        <ele>185.4</ele>
        <time>2013-01-30T11:20:31Z</time>
      </trkpt>
      <trkpt lat="46.68642" lon="4.8525">
        <ele>186</ele>
        <time>2013-01-30T11:20:33Z</time>
      </trkpt>
      <trkpt lat="46.68639" lon="4.85243">
        <ele>187.1</ele>
        <time>2013-01-30T11:20:35Z</time>
      </trkpt>
      <trkpt lat="46.68634" lon="4.85231">
        <ele>183.6</ele>
        <time>2013-01-30T11:20:38Z</time>
      </trkpt>
      <trkpt lat="46.68628" lon="4.85216">
        <ele>184.8</ele>
        <time>2013-01-30T11:20:42Z</time>
      </trkpt>
      <trkpt lat="46.68626" lon="4.8521">
        <ele>186.3</ele>
        <time>2013-01-30T11:20:44Z</time>
      </trkpt>
      <trkpt lat="46.68622" lon="4.85198">
        <ele>185.4</ele>
        <time>2013-01-30T11:20:48Z</time>
      </trkpt>
      <trkpt lat="46.68614" lon="4.85177">
        <ele>184.2</ele>
        <time>2013-01-30T11:20:54Z</time>
      </trkpt>
      <trkpt lat="46.68609" lon="4.85163">
        <ele>184.7</ele>
        <time>2013-01-30T11:20:58Z</time>
      </trkpt>
      <trkpt lat="46.68604" lon="4.85146">
        <ele>182.7</ele>
        <time>2013-01-30T11:21:03Z</time>
      </trkpt>
      <trkpt lat="46.68597" lon="4.85126">
        <ele>191.6</ele>
        <time>2013-01-30T11:21:09Z</time>
      </trkpt>
      <trkpt lat="46.68591" lon="4.8511">
        <ele>190.7</ele>
        <time>2013-01-30T11:21:13Z</time>
      </trkpt>
      <trkpt lat="46.68584" lon="4.85091">
        <ele>187.8</ele>
        <time>2013-01-30T11:21:18Z</time>
      </trkpt>
      <trkpt lat="46.68578" lon="4.85072">
        <ele>184.3</ele>
        <time>2013-01-30T11:21:24Z</time>
      </trkpt>
      <trkpt lat="46.68571" lon="4.85053">
        <ele>186</ele>
        <time>2013-01-30T11:21:29Z</time>
      </trkpt>
      <trkpt lat="46.68565" lon="4.85033">
        <ele>187.4</ele>
        <time>2013-01-30T11:21:35Z</time>
      </trkpt>
      <trkpt lat="46.68559" lon="4.85017">
        <ele>186.8</ele>
        <time>2013-01-30T11:21:39Z</time>
      </trkpt>
      <trkpt lat="46.68554" lon="4.84999">
        <ele>185.8</ele>
        <time>2013-01-30T11:21:44Z</time>
      </trkpt>
      <trkpt lat="46.68547" lon="4.84983">
        <ele>190</ele>
        <time>2013-01-30T11:21:49Z</time>
      </trkpt>
      <trkpt lat="46.68545" lon="4.84975">
        <ele>189.9</ele>
        <time>2013-01-30T11:21:51Z</time>
      </trkpt>
      <trkpt lat="46.68542" lon="4.84967">
        <ele>188.7</ele>
        <time>2013-01-30T11:21:53Z</time>
      </trkpt>
      <trkpt lat="46.68538" lon="4.84948">
        <ele>189.8</ele>
        <time>2013-01-30T11:21:58Z</time>
      </trkpt>
      <trkpt lat="46.68534" lon="4.84927">
        <ele>187.6</ele>
        <time>2013-01-30T11:22:03Z</time>
      </trkpt>
      <trkpt lat="46.68529" lon="4.84906">
        <ele>183.5</ele>
        <time>2013-01-30T11:22:09Z</time>
      </trkpt>
      <trkpt lat="46.68525" lon="4.84888">
        <ele>182</ele>
        <time>2013-01-30T11:22:14Z</time>
      </trkpt>
      <trkpt lat="46.68521" lon="4.84869">
        <ele>183.6</ele>
        <time>2013-01-30T11:22:19Z</time>
      </trkpt>
      <trkpt lat="46.68518" lon="4.84853">
        <ele>185.4</ele>
        <time>2013-01-30T11:22:23Z</time>
      </trkpt>
      <trkpt lat="46.68515" lon="4.84833">
        <ele>185.4</ele>
        <time>2013-01-30T11:22:28Z</time>
      </trkpt>
      <trkpt lat="46.68511" lon="4.84818">
        <ele>185.7</ele>
        <time>2013-01-30T11:22:32Z</time>
      </trkpt>
      <trkpt lat="46.68509" lon="4.84805">
        <ele>186.1</ele>
        <time>2013-01-30T11:22:36Z</time>
      </trkpt>
      <trkpt lat="46.68503" lon="4.84785">
        <ele>184.7</ele>
        <time>2013-01-30T11:22:41Z</time>
      </trkpt>
      <trkpt lat="46.68501" lon="4.84767">
        <ele>187.5</ele>
        <time>2013-01-30T11:22:46Z</time>
      </trkpt>
      <trkpt lat="46.68499" lon="4.84759">
        <ele>189.7</ele>
        <time>2013-01-30T11:22:48Z</time>
      </trkpt>
      <trkpt lat="46.68496" lon="4.84747">
        <ele>191.6</ele>
        <time>2013-01-30T11:22:51Z</time>
      </trkpt>
      <trkpt lat="46.68491" lon="4.84728">
        <ele>192.1</ele>
        <time>2013-01-30T11:22:56Z</time>
      </trkpt>
      <trkpt lat="46.68486" lon="4.84707">
        <ele>187.2</ele>
        <time>2013-01-30T11:23:01Z</time>
      </trkpt>
      <trkpt lat="46.68483" lon="4.84694">
        <ele>181.9</ele>
        <time>2013-01-30T11:23:05Z</time>
      </trkpt>
      <trkpt lat="46.68479" lon="4.84674">
        <ele>184.6</ele>
        <time>2013-01-30T11:23:10Z</time>
      </trkpt>
      <trkpt lat="46.68476" lon="4.84655">
        <ele>184.5</ele>
        <time>2013-01-30T11:23:15Z</time>
      </trkpt>
      <trkpt lat="46.68472" lon="4.84638">
        <ele>181.5</ele>
        <time>2013-01-30T11:23:19Z</time>
      </trkpt>
      <trkpt lat="46.68471" lon="4.84631">
        <ele>177.9</ele>
        <time>2013-01-30T11:23:21Z</time>
      </trkpt>
      <trkpt lat="46.68469" lon="4.84623">
        <ele>178.6</ele>
        <time>2013-01-30T11:23:23Z</time>
      </trkpt>
      <trkpt lat="46.68466" lon="4.84602">
        <ele>176.6</ele>
        <time>2013-01-30T11:23:28Z</time>
      </trkpt>
      <trkpt lat="46.68465" lon="4.84581">
        <ele>178.4</ele>
        <time>2013-01-30T11:23:33Z</time>
      </trkpt>
      <trkpt lat="46.68463" lon="4.84568">
        <ele>178.6</ele>
        <time>2013-01-30T11:23:36Z</time>
      </trkpt>
      <trkpt lat="46.68463" lon="4.84553">
        <ele>181.1</ele>
        <time>2013-01-30T11:23:39Z</time>
      </trkpt>
      <trkpt lat="46.68462" lon="4.84545">
        <ele>182.4</ele>
        <time>2013-01-30T11:23:41Z</time>
      </trkpt>
      <trkpt lat="46.68461" lon="4.84534">
        <ele>183</ele>
        <time>2013-01-30T11:23:44Z</time>
      </trkpt>
      <trkpt lat="46.68456" lon="4.84514">
        <ele>182.8</ele>
        <time>2013-01-30T11:23:49Z</time>
      </trkpt>
      <trkpt lat="46.68453" lon="4.84484">
        <ele>185.4</ele>
        <time>2013-01-30T11:23:57Z</time>
      </trkpt>
      <trkpt lat="46.68454" lon="4.84475">
        <ele>186.5</ele>
        <time>2013-01-30T11:23:59Z</time>
      </trkpt>
      <trkpt lat="46.68454" lon="4.84465">
        <ele>184.4</ele>
        <time>2013-01-30T11:24:01Z</time>
      </trkpt>
      <trkpt lat="46.68454" lon="4.84457">
        <ele>186.9</ele>
        <time>2013-01-30T11:24:03Z</time>
      </trkpt>
      <trkpt lat="46.68454" lon="4.8445">
        <ele>189.9</ele>
        <time>2013-01-30T11:24:05Z</time>
      </trkpt>
      <trkpt lat="46.68452" lon="4.84442">
        <ele>185.7</ele>
        <time>2013-01-30T11:24:07Z</time>
      </trkpt>
      <trkpt lat="46.68449" lon="4.84426">
        <ele>179.1</ele>
        <time>2013-01-30T11:24:12Z</time>
      </trkpt>
      <trkpt lat="46.68443" lon="4.8441">
        <ele>178.7</ele>
        <time>2013-01-30T11:24:17Z</time>
      </trkpt>
      <trkpt lat="46.68436" lon="4.84393">
        <ele>178.6</ele>
        <time>2013-01-30T11:24:22Z</time>
      </trkpt>
      <trkpt lat="46.68427" lon="4.84378">
        <ele>175</ele>
        <time>2013-01-30T11:24:27Z</time>
      </trkpt>
      <trkpt lat="46.6842" lon="4.84364">
        <ele>175.7</ele>
        <time>2013-01-30T11:24:31Z</time>
      </trkpt>
      <trkpt lat="46.68417" lon="4.84358">
        <ele>173.1</ele>
        <time>2013-01-30T11:24:33Z</time>
      </trkpt>
      <trkpt lat="46.68413" lon="4.84351">
        <ele>172.6</ele>
        <time>2013-01-30T11:24:35Z</time>
      </trkpt>
      <trkpt lat="46.68409" lon="4.84346">
        <ele>175.5</ele>
        <time>2013-01-30T11:24:37Z</time>
      </trkpt>
      <trkpt lat="46.68399" lon="4.84329">
        <ele>175.5</ele>
        <time>2013-01-30T11:24:43Z</time>
      </trkpt>
      <trkpt lat="46.6839" lon="4.84315">
        <ele>176.2</ele>
        <time>2013-01-30T11:24:48Z</time>
      </trkpt>
      <trkpt lat="46.68387" lon="4.84309">
        <ele>176.1</ele>
        <time>2013-01-30T11:24:50Z</time>
      </trkpt>
      <trkpt lat="46.68384" lon="4.84304">
        <ele>176.6</ele>
        <time>2013-01-30T11:24:52Z</time>
      </trkpt>
      <trkpt lat="46.68377" lon="4.84288">
        <ele>179.9</ele>
        <time>2013-01-30T11:24:57Z</time>
      </trkpt>
      <trkpt lat="46.68373" lon="4.84281">
        <ele>181.5</ele>
        <time>2013-01-30T11:24:59Z</time>
      </trkpt>
      <trkpt lat="46.6837" lon="4.84273">
        <ele>184.1</ele>
        <time>2013-01-30T11:25:02Z</time>
      </trkpt>
      <trkpt lat="46.68362" lon="4.84256">
        <ele>181.1</ele>
        <time>2013-01-30T11:25:07Z</time>
      </trkpt>
      <trkpt lat="46.6836" lon="4.84247">
        <ele>178.1</ele>
        <time>2013-01-30T11:25:10Z</time>
      </trkpt>
      <trkpt lat="46.68359" lon="4.8424">
        <ele>175.3</ele>
        <time>2013-01-30T11:25:12Z</time>
      </trkpt>
      <trkpt lat="46.68355" lon="4.84228">
        <ele>176.9</ele>
        <time>2013-01-30T11:25:16Z</time>
      </trkpt>
      <trkpt lat="46.68354" lon="4.8422">
        <ele>177.5</ele>
        <time>2013-01-30T11:25:18Z</time>
      </trkpt>
      <trkpt lat="46.68351" lon="4.84212">
        <ele>179</ele>
        <time>2013-01-30T11:25:20Z</time>
      </trkpt>
      <trkpt lat="46.68349" lon="4.84206">
        <ele>177</ele>
        <time>2013-01-30T11:25:22Z</time>
      </trkpt>
      <trkpt lat="46.68342" lon="4.84184">
        <ele>174.7</ele>
        <time>2013-01-30T11:25:28Z</time>
      </trkpt>
      <trkpt lat="46.68335" lon="4.84166">
        <ele>176.1</ele>
        <time>2013-01-30T11:25:33Z</time>
      </trkpt>
      <trkpt lat="46.68331" lon="4.84156">
        <ele>177.9</ele>
        <time>2013-01-30T11:25:36Z</time>
      </trkpt>
      <trkpt lat="46.68329" lon="4.84149">
        <ele>177.9</ele>
        <time>2013-01-30T11:25:38Z</time>
      </trkpt>
      <trkpt lat="46.68323" lon="4.8413">
        <ele>179.3</ele>
        <time>2013-01-30T11:25:43Z</time>
      </trkpt>
      <trkpt lat="46.6832" lon="4.84123">
        <ele>177.8</ele>
        <time>2013-01-30T11:25:45Z</time>
      </trkpt>
      <trkpt lat="46.68318" lon="4.84116">
        <ele>180.3</ele>
        <time>2013-01-30T11:25:47Z</time>
      </trkpt>
      <trkpt lat="46.68313" lon="4.84097">
        <ele>180.1</ele>
        <time>2013-01-30T11:25:52Z</time>
      </trkpt>
      <trkpt lat="46.68307" lon="4.84081">
        <ele>176.6</ele>
        <time>2013-01-30T11:25:57Z</time>
      </trkpt>
      <trkpt lat="46.68305" lon="4.84075">
        <ele>179.4</ele>
        <time>2013-01-30T11:25:59Z</time>
      </trkpt>
      <trkpt lat="46.68303" lon="4.84065">
        <ele>179</ele>
        <time>2013-01-30T11:26:02Z</time>
      </trkpt>
      <trkpt lat="46.68297" lon="4.84046">
        <ele>182.9</ele>
        <time>2013-01-30T11:26:08Z</time>
      </trkpt>
      <trkpt lat="46.68291" lon="4.8403">
        <ele>177.3</ele>
        <time>2013-01-30T11:26:13Z</time>
      </trkpt>
      <trkpt lat="46.68285" lon="4.84013">
        <ele>185.4</ele>
        <time>2013-01-30T11:26:18Z</time>
      </trkpt>
      <trkpt lat="46.68281" lon="4.84">
        <ele>177.8</ele>
        <time>2013-01-30T11:26:22Z</time>
      </trkpt>
      <trkpt lat="46.68275" lon="4.8398">
        <ele>178.1</ele>
        <time>2013-01-30T11:26:28Z</time>
      </trkpt>
      <trkpt lat="46.68268" lon="4.83959">
        <ele>182.4</ele>
        <time>2013-01-30T11:26:34Z</time>
      </trkpt>
      <trkpt lat="46.68262" lon="4.8394">
        <ele>176.4</ele>
        <time>2013-01-30T11:26:39Z</time>
      </trkpt>
      <trkpt lat="46.6826" lon="4.83933">
        <ele>178.4</ele>
        <time>2013-01-30T11:26:41Z</time>
      </trkpt>
      <trkpt lat="46.68258" lon="4.83927">
        <ele>180.4</ele>
        <time>2013-01-30T11:26:43Z</time>
      </trkpt>
      <trkpt lat="46.68253" lon="4.83908">
        <ele>179.6</ele>
        <time>2013-01-30T11:26:48Z</time>
      </trkpt>
      <trkpt lat="46.68247" lon="4.8389">
        <ele>174.2</ele>
        <time>2013-01-30T11:26:53Z</time>
      </trkpt>
      <trkpt lat="46.68243" lon="4.83878">
        <ele>177.7</ele>
        <time>2013-01-30T11:26:57Z</time>
      </trkpt>
      <trkpt lat="46.68237" lon="4.8386">
        <ele>179.7</ele>
        <time>2013-01-30T11:27:02Z</time>
      </trkpt>
      <trkpt lat="46.68231" lon="4.8384">
        <ele>177.1</ele>
        <time>2013-01-30T11:27:08Z</time>
      </trkpt>
      <trkpt lat="46.68226" lon="4.8382">
        <ele>179.2</ele>
        <time>2013-01-30T11:27:14Z</time>
      </trkpt>
      <trkpt lat="46.68221" lon="4.83807">
        <ele>173.3</ele>
        <time>2013-01-30T11:27:18Z</time>
      </trkpt>
      <trkpt lat="46.68218" lon="4.83794">
        <ele>177.8</ele>
        <time>2013-01-30T11:27:21Z</time>
      </trkpt>
      <trkpt lat="46.68214" lon="4.83781">
        <ele>169.9</ele>
        <time>2013-01-30T11:27:25Z</time>
      </trkpt>
      <trkpt lat="46.68211" lon="4.83768">
        <ele>175.4</ele>
        <time>2013-01-30T11:27:29Z</time>
      </trkpt>
      <trkpt lat="46.68205" lon="4.8375">
        <ele>178.8</ele>
        <time>2013-01-30T11:27:34Z</time>
      </trkpt>
      <trkpt lat="46.68199" lon="4.83732">
        <ele>175.7</ele>
        <time>2013-01-30T11:27:39Z</time>
      </trkpt>
      <trkpt lat="46.68195" lon="4.8372">
        <ele>174.8</ele>
        <time>2013-01-30T11:27:42Z</time>
      </trkpt>
      <trkpt lat="46.68188" lon="4.837">
        <ele>180.1</ele>
        <time>2013-01-30T11:27:48Z</time>
      </trkpt>
      <trkpt lat="46.68182" lon="4.83681">
        <ele>173.2</ele>
        <time>2013-01-30T11:27:53Z</time>
      </trkpt>
      <trkpt lat="46.68176" lon="4.83668">
        <ele>171.4</ele>
        <time>2013-01-30T11:27:57Z</time>
      </trkpt>
      <trkpt lat="46.68175" lon="4.83661">
        <ele>171.8</ele>
        <time>2013-01-30T11:27:59Z</time>
      </trkpt>
      <trkpt lat="46.68173" lon="4.83654">
        <ele>169.3</ele>
        <time>2013-01-30T11:28:01Z</time>
      </trkpt>
      <trkpt lat="46.68171" lon="4.83648">
        <ele>171.6</ele>
        <time>2013-01-30T11:28:03Z</time>
      </trkpt>
      <trkpt lat="46.68165" lon="4.83628">
        <ele>176.3</ele>
        <time>2013-01-30T11:28:09Z</time>
      </trkpt>
      <trkpt lat="46.6816" lon="4.83614">
        <ele>175.7</ele>
        <time>2013-01-30T11:28:13Z</time>
      </trkpt>
      <trkpt lat="46.68155" lon="4.83601">
        <ele>174.5</ele>
        <time>2013-01-30T11:28:17Z</time>
      </trkpt>
      <trkpt lat="46.6815" lon="4.83585">
        <ele>177.8</ele>
        <time>2013-01-30T11:28:22Z</time>
      </trkpt>
      <trkpt lat="46.68144" lon="4.83564">
        <ele>173.3</ele>
        <time>2013-01-30T11:28:27Z</time>
      </trkpt>
      <trkpt lat="46.68139" lon="4.83546">
        <ele>176.2</ele>
        <time>2013-01-30T11:28:32Z</time>
      </trkpt>
      <trkpt lat="46.68133" lon="4.83526">
        <ele>179.3</ele>
        <time>2013-01-30T11:28:38Z</time>
      </trkpt>
      <trkpt lat="46.68129" lon="4.83514">
        <ele>180.5</ele>
        <time>2013-01-30T11:28:42Z</time>
      </trkpt>
      <trkpt lat="46.68123" lon="4.83496">
        <ele>177.7</ele>
        <time>2013-01-30T11:28:48Z</time>
      </trkpt>
      <trkpt lat="46.68116" lon="4.83475">
        <ele>177.5</ele>
        <time>2013-01-30T11:28:54Z</time>
      </trkpt>
      <trkpt lat="46.68111" lon="4.83462">
        <ele>177</ele>
        <time>2013-01-30T11:28:58Z</time>
      </trkpt>
      <trkpt lat="46.68105" lon="4.83443">
        <ele>176.2</ele>
        <time>2013-01-30T11:29:03Z</time>
      </trkpt>
      <trkpt lat="46.68098" lon="4.83423">
        <ele>170.9</ele>
        <time>2013-01-30T11:29:08Z</time>
      </trkpt>
      <trkpt lat="46.68092" lon="4.83405">
        <ele>176.8</ele>
        <time>2013-01-30T11:29:13Z</time>
      </trkpt>
      <trkpt lat="46.68086" lon="4.83385">
        <ele>181.9</ele>
        <time>2013-01-30T11:29:19Z</time>
      </trkpt>
      <trkpt lat="46.68081" lon="4.83371">
        <ele>181.7</ele>
        <time>2013-01-30T11:29:23Z</time>
      </trkpt>
      <trkpt lat="46.68077" lon="4.83358">
        <ele>182</ele>
        <time>2013-01-30T11:29:27Z</time>
      </trkpt>
      <trkpt lat="46.6807" lon="4.8334">
        <ele>178.5</ele>
        <time>2013-01-30T11:29:32Z</time>
      </trkpt>
      <trkpt lat="46.68067" lon="4.83333">
        <ele>179.1</ele>
        <time>2013-01-30T11:29:34Z</time>
      </trkpt>
      <trkpt lat="46.68065" lon="4.83325">
        <ele>180.4</ele>
        <time>2013-01-30T11:29:36Z</time>
      </trkpt>
      <trkpt lat="46.6806" lon="4.83305">
        <ele>176.2</ele>
        <time>2013-01-30T11:29:42Z</time>
      </trkpt>
      <trkpt lat="46.68053" lon="4.83285">
        <ele>177.3</ele>
        <time>2013-01-30T11:29:48Z</time>
      </trkpt>
      <trkpt lat="46.68047" lon="4.83264">
        <ele>183.7</ele>
        <time>2013-01-30T11:29:54Z</time>
      </trkpt>
      <trkpt lat="46.68043" lon="4.83252">
        <ele>183.4</ele>
        <time>2013-01-30T11:29:58Z</time>
      </trkpt>
      <trkpt lat="46.68038" lon="4.83235">
        <ele>177.8</ele>
        <time>2013-01-30T11:30:03Z</time>
      </trkpt>
      <trkpt lat="46.68034" lon="4.83218">
        <ele>178.5</ele>
        <time>2013-01-30T11:30:08Z</time>
      </trkpt>
      <trkpt lat="46.6803" lon="4.83206">
        <ele>173.9</ele>
        <time>2013-01-30T11:30:12Z</time>
      </trkpt>
      <trkpt lat="46.68023" lon="4.83188">
        <ele>176</ele>
        <time>2013-01-30T11:30:17Z</time>
      </trkpt>
      <trkpt lat="46.68019" lon="4.83176">
        <ele>176.1</ele>
        <time>2013-01-30T11:30:20Z</time>
      </trkpt>
      <trkpt lat="46.68014" lon="4.83159">
        <ele>172.3</ele>
        <time>2013-01-30T11:30:25Z</time>
      </trkpt>
      <trkpt lat="46.68006" lon="4.83142">
        <ele>179.1</ele>
        <time>2013-01-30T11:30:31Z</time>
      </trkpt>
      <trkpt lat="46.68002" lon="4.83124">
        <ele>176.6</ele>
        <time>2013-01-30T11:30:36Z</time>
      </trkpt>
      <trkpt lat="46.67995" lon="4.83105">
        <ele>178.1</ele>
        <time>2013-01-30T11:30:42Z</time>
      </trkpt>
      <trkpt lat="46.6799" lon="4.83091">
        <ele>181.9</ele>
        <time>2013-01-30T11:30:46Z</time>
      </trkpt>
      <trkpt lat="46.67988" lon="4.83077">
        <ele>179.7</ele>
        <time>2013-01-30T11:30:50Z</time>
      </trkpt>
      <trkpt lat="46.67984" lon="4.8306">
        <ele>178.3</ele>
        <time>2013-01-30T11:30:55Z</time>
      </trkpt>
      <trkpt lat="46.67979" lon="4.83048">
        <ele>180.5</ele>
        <time>2013-01-30T11:31:00Z</time>
      </trkpt>
      <trkpt lat="46.67972" lon="4.83029">
        <ele>181</ele>
        <time>2013-01-30T11:31:06Z</time>
      </trkpt>
      <trkpt lat="46.67968" lon="4.83016">
        <ele>178.6</ele>
        <time>2013-01-30T11:31:10Z</time>
      </trkpt>
      <trkpt lat="46.67963" lon="4.83">
        <ele>182.4</ele>
        <time>2013-01-30T11:31:15Z</time>
      </trkpt>
      <trkpt lat="46.67958" lon="4.82985">
        <ele>185.9</ele>
        <time>2013-01-30T11:31:19Z</time>
      </trkpt>
      <trkpt lat="46.67956" lon="4.8298">
        <ele>186.9</ele>
        <time>2013-01-30T11:31:21Z</time>
      </trkpt>
      <trkpt lat="46.67952" lon="4.82971">
        <ele>188.7</ele>
        <time>2013-01-30T11:31:24Z</time>
      </trkpt>
      <trkpt lat="46.67949" lon="4.82963">
        <ele>192.5</ele>
        <time>2013-01-30T11:31:26Z</time>
      </trkpt>
      <trkpt lat="46.67945" lon="4.82953">
        <ele>183.6</ele>
        <time>2013-01-30T11:31:29Z</time>
      </trkpt>
      <trkpt lat="46.67941" lon="4.82935">
        <ele>192.9</ele>
        <time>2013-01-30T11:31:34Z</time>
      </trkpt>
      <trkpt lat="46.67936" lon="4.8292">
        <ele>186.4</ele>
        <time>2013-01-30T11:31:39Z</time>
      </trkpt>
      <trkpt lat="46.67931" lon="4.82903">
        <ele>185</ele>
        <time>2013-01-30T11:31:44Z</time>
      </trkpt>
      <trkpt lat="46.67927" lon="4.82889">
        <ele>185.2</ele>
        <time>2013-01-30T11:31:48Z</time>
      </trkpt>
      <trkpt lat="46.67921" lon="4.8287">
        <ele>185</ele>
        <time>2013-01-30T11:31:54Z</time>
      </trkpt>
      <trkpt lat="46.67919" lon="4.82864">
        <ele>186.7</ele>
        <time>2013-01-30T11:31:56Z</time>
      </trkpt>
      <trkpt lat="46.67917" lon="4.82857">
        <ele>183.8</ele>
        <time>2013-01-30T11:31:58Z</time>
      </trkpt>
      <trkpt lat="46.67914" lon="4.82844">
        <ele>184.4</ele>
        <time>2013-01-30T11:32:02Z</time>
      </trkpt>
      <trkpt lat="46.67909" lon="4.82828">
        <ele>181</ele>
        <time>2013-01-30T11:32:07Z</time>
      </trkpt>
      <trkpt lat="46.67905" lon="4.82813">
        <ele>181.9</ele>
        <time>2013-01-30T11:32:11Z</time>
      </trkpt>
      <trkpt lat="46.679" lon="4.828">
        <ele>177.5</ele>
        <time>2013-01-30T11:32:15Z</time>
      </trkpt>
      <trkpt lat="46.67896" lon="4.82787">
        <ele>180.3</ele>
        <time>2013-01-30T11:32:19Z</time>
      </trkpt>
      <trkpt lat="46.67891" lon="4.82772">
        <ele>174.3</ele>
        <time>2013-01-30T11:32:24Z</time>
      </trkpt>
      <trkpt lat="46.67886" lon="4.82754">
        <ele>182</ele>
        <time>2013-01-30T11:32:30Z</time>
      </trkpt>
      <trkpt lat="46.67883" lon="4.8274">
        <ele>183.9</ele>
        <time>2013-01-30T11:32:34Z</time>
      </trkpt>
      <trkpt lat="46.67881" lon="4.82733">
        <ele>180.7</ele>
        <time>2013-01-30T11:32:36Z</time>
      </trkpt>
      <trkpt lat="46.67878" lon="4.82725">
        <ele>185.7</ele>
        <time>2013-01-30T11:32:39Z</time>
      </trkpt>
      <trkpt lat="46.67873" lon="4.82712">
        <ele>183.3</ele>
        <time>2013-01-30T11:32:43Z</time>
      </trkpt>
      <trkpt lat="46.67868" lon="4.82698">
        <ele>184.1</ele>
        <time>2013-01-30T11:32:47Z</time>
      </trkpt>
      <trkpt lat="46.67863" lon="4.82685">
        <ele>182</ele>
        <time>2013-01-30T11:32:51Z</time>
      </trkpt>
      <trkpt lat="46.67857" lon="4.82668">
        <ele>188</ele>
        <time>2013-01-30T11:32:57Z</time>
      </trkpt>
      <trkpt lat="46.67854" lon="4.82653">
        <ele>188.1</ele>
        <time>2013-01-30T11:33:01Z</time>
      </trkpt>
      <trkpt lat="46.67848" lon="4.82635">
        <ele>185.6</ele>
        <time>2013-01-30T11:33:06Z</time>
      </trkpt>
      <trkpt lat="46.67841" lon="4.82616">
        <ele>190.2</ele>
        <time>2013-01-30T11:33:12Z</time>
      </trkpt>
      <trkpt lat="46.67836" lon="4.82602">
        <ele>183.1</ele>
        <time>2013-01-30T11:33:17Z</time>
      </trkpt>
      <trkpt lat="46.67831" lon="4.82588">
        <ele>179.6</ele>
        <time>2013-01-30T11:33:22Z</time>
      </trkpt>
      <trkpt lat="46.67826" lon="4.82568">
        <ele>180.9</ele>
        <time>2013-01-30T11:33:29Z</time>
      </trkpt>
      <trkpt lat="46.67824" lon="4.82561">
        <ele>180.6</ele>
        <time>2013-01-30T11:33:31Z</time>
      </trkpt>
      <trkpt lat="46.67821" lon="4.82554">
        <ele>181.5</ele>
        <time>2013-01-30T11:33:33Z</time>
      </trkpt>
      <trkpt lat="46.67817" lon="4.82548">
        <ele>182.4</ele>
        <time>2013-01-30T11:33:35Z</time>
      </trkpt>
      <trkpt lat="46.67812" lon="4.82534">
        <ele>181.4</ele>
        <time>2013-01-30T11:33:39Z</time>
      </trkpt>
      <trkpt lat="46.67808" lon="4.82522">
        <ele>184.3</ele>
        <time>2013-01-30T11:33:43Z</time>
      </trkpt>
      <trkpt lat="46.67804" lon="4.82504">
        <ele>182</ele>
        <time>2013-01-30T11:33:48Z</time>
      </trkpt>
      <trkpt lat="46.67802" lon="4.82498">
        <ele>180.7</ele>
        <time>2013-01-30T11:33:50Z</time>
      </trkpt>
      <trkpt lat="46.67799" lon="4.82488">
        <ele>181.5</ele>
        <time>2013-01-30T11:33:53Z</time>
      </trkpt>
      <trkpt lat="46.67797" lon="4.82481">
        <ele>181.9</ele>
        <time>2013-01-30T11:33:55Z</time>
      </trkpt>
      <trkpt lat="46.67795" lon="4.82475">
        <ele>181.2</ele>
        <time>2013-01-30T11:33:57Z</time>
      </trkpt>
      <trkpt lat="46.67792" lon="4.82468">
        <ele>187.9</ele>
        <time>2013-01-30T11:33:59Z</time>
      </trkpt>
      <trkpt lat="46.67786" lon="4.82452">
        <ele>189.4</ele>
        <time>2013-01-30T11:34:04Z</time>
      </trkpt>
      <trkpt lat="46.67782" lon="4.82439">
        <ele>186</ele>
        <time>2013-01-30T11:34:08Z</time>
      </trkpt>
      <trkpt lat="46.67778" lon="4.82423">
        <ele>188.2</ele>
        <time>2013-01-30T11:34:13Z</time>
      </trkpt>
      <trkpt lat="46.67778" lon="4.82416">
        <ele>181.5</ele>
        <time>2013-01-30T11:34:15Z</time>
      </trkpt>
      <trkpt lat="46.6778" lon="4.8241">
        <ele>184.6</ele>
        <time>2013-01-30T11:34:17Z</time>
      </trkpt>
      <trkpt lat="46.67786" lon="4.82407">
        <ele>183.1</ele>
        <time>2013-01-30T11:34:20Z</time>
      </trkpt>
      <trkpt lat="46.67792" lon="4.82409">
        <ele>181.6</ele>
        <time>2013-01-30T11:34:22Z</time>
      </trkpt>
      <trkpt lat="46.67801" lon="4.82416">
        <ele>184.3</ele>
        <time>2013-01-30T11:34:26Z</time>
      </trkpt>
      <trkpt lat="46.67812" lon="4.82428">
        <ele>185.5</ele>
        <time>2013-01-30T11:34:31Z</time>
      </trkpt>
      <trkpt lat="46.6782" lon="4.82436">
        <ele>185.6</ele>
        <time>2013-01-30T11:34:35Z</time>
      </trkpt>
      <trkpt lat="46.67824" lon="4.8244">
        <ele>186.6</ele>
        <time>2013-01-30T11:34:37Z</time>
      </trkpt>
      <trkpt lat="46.67828" lon="4.82445">
        <ele>184.1</ele>
        <time>2013-01-30T11:34:39Z</time>
      </trkpt>
      <trkpt lat="46.6784" lon="4.82458">
        <ele>182.8</ele>
        <time>2013-01-30T11:34:45Z</time>
      </trkpt>
      <trkpt lat="46.67852" lon="4.82468">
        <ele>183</ele>
        <time>2013-01-30T11:34:50Z</time>
      </trkpt>
      <trkpt lat="46.67865" lon="4.82479">
        <ele>180.8</ele>
        <time>2013-01-30T11:34:56Z</time>
      </trkpt>
      <trkpt lat="46.67874" lon="4.82485">
        <ele>183.2</ele>
        <time>2013-01-30T11:35:00Z</time>
      </trkpt>
      <trkpt lat="46.67885" lon="4.82495">
        <ele>175.8</ele>
        <time>2013-01-30T11:35:05Z</time>
      </trkpt>
      <trkpt lat="46.67894" lon="4.82507">
        <ele>175.4</ele>
        <time>2013-01-30T11:35:09Z</time>
      </trkpt>
      <trkpt lat="46.67902" lon="4.82517">
        <ele>172.7</ele>
        <time>2013-01-30T11:35:13Z</time>
      </trkpt>
      <trkpt lat="46.67909" lon="4.82525">
        <ele>172.9</ele>
        <time>2013-01-30T11:35:17Z</time>
      </trkpt>
      <trkpt lat="46.67922" lon="4.82539">
        <ele>175.1</ele>
        <time>2013-01-30T11:35:24Z</time>
      </trkpt>
      <trkpt lat="46.67932" lon="4.82553">
        <ele>174.4</ele>
        <time>2013-01-30T11:35:29Z</time>
      </trkpt>
      <trkpt lat="46.67942" lon="4.82566">
        <ele>168.7</ele>
        <time>2013-01-30T11:35:34Z</time>
      </trkpt>
      <trkpt lat="46.67948" lon="4.82576">
        <ele>172.9</ele>
        <time>2013-01-30T11:35:37Z</time>
      </trkpt>
      <trkpt lat="46.6796" lon="4.82592">
        <ele>164.7</ele>
        <time>2013-01-30T11:35:43Z</time>
      </trkpt>
      <trkpt lat="46.6797" lon="4.82604">
        <ele>169</ele>
        <time>2013-01-30T11:35:48Z</time>
      </trkpt>
      <trkpt lat="46.67982" lon="4.82617">
        <ele>167.9</ele>
        <time>2013-01-30T11:35:54Z</time>
      </trkpt>
      <trkpt lat="46.67989" lon="4.8263">
        <ele>166.3</ele>
        <time>2013-01-30T11:35:58Z</time>
      </trkpt>
      <trkpt lat="46.67998" lon="4.8264">
        <ele>170.9</ele>
        <time>2013-01-30T11:36:03Z</time>
      </trkpt>
      <trkpt lat="46.68007" lon="4.82656">
        <ele>170.8</ele>
        <time>2013-01-30T11:36:08Z</time>
      </trkpt>
      <trkpt lat="46.68013" lon="4.82667">
        <ele>166.5</ele>
        <time>2013-01-30T11:36:12Z</time>
      </trkpt>
      <trkpt lat="46.68023" lon="4.82681">
        <ele>162.7</ele>
        <time>2013-01-30T11:36:17Z</time>
      </trkpt>
      <trkpt lat="46.6803" lon="4.82695">
        <ele>168.9</ele>
        <time>2013-01-30T11:36:22Z</time>
      </trkpt>
      <trkpt lat="46.68043" lon="4.82709">
        <ele>166.4</ele>
        <time>2013-01-30T11:36:28Z</time>
      </trkpt>
      <trkpt lat="46.68051" lon="4.82719">
        <ele>161.4</ele>
        <time>2013-01-30T11:36:32Z</time>
      </trkpt>
      <trkpt lat="46.68056" lon="4.82724">
        <ele>170</ele>
        <time>2013-01-30T11:36:34Z</time>
      </trkpt>
      <trkpt lat="46.68061" lon="4.82728">
        <ele>173.3</ele>
        <time>2013-01-30T11:36:36Z</time>
      </trkpt>
      <trkpt lat="46.6807" lon="4.82738">
        <ele>176.2</ele>
        <time>2013-01-30T11:36:41Z</time>
      </trkpt>
      <trkpt lat="46.68082" lon="4.82751">
        <ele>168.5</ele>
        <time>2013-01-30T11:36:47Z</time>
      </trkpt>
      <trkpt lat="46.68092" lon="4.82762">
        <ele>166.8</ele>
        <time>2013-01-30T11:36:52Z</time>
      </trkpt>
      <trkpt lat="46.68099" lon="4.82771">
        <ele>162.6</ele>
        <time>2013-01-30T11:36:56Z</time>
      </trkpt>
      <trkpt lat="46.68111" lon="4.82783">
        <ele>163</ele>
        <time>2013-01-30T11:37:01Z</time>
      </trkpt>
      <trkpt lat="46.68121" lon="4.82794">
        <ele>169.1</ele>
        <time>2013-01-30T11:37:06Z</time>
      </trkpt>
      <trkpt lat="46.68125" lon="4.828">
        <ele>172.2</ele>
        <time>2013-01-30T11:37:08Z</time>
      </trkpt>
      <trkpt lat="46.68131" lon="4.82809">
        <ele>166.8</ele>
        <time>2013-01-30T11:37:11Z</time>
      </trkpt>
      <trkpt lat="46.6814" lon="4.82817">
        <ele>166.5</ele>
        <time>2013-01-30T11:37:15Z</time>
      </trkpt>
      <trkpt lat="46.68153" lon="4.82828">
        <ele>167.2</ele>
        <time>2013-01-30T11:37:20Z</time>
      </trkpt>
      <trkpt lat="46.68163" lon="4.8284">
        <ele>162.8</ele>
        <time>2013-01-30T11:37:25Z</time>
      </trkpt>
      <trkpt lat="46.6817" lon="4.8285">
        <ele>162.1</ele>
        <time>2013-01-30T11:37:29Z</time>
      </trkpt>
      <trkpt lat="46.68175" lon="4.82855">
        <ele>161.7</ele>
        <time>2013-01-30T11:37:31Z</time>
      </trkpt>
      <trkpt lat="46.68183" lon="4.82863">
        <ele>164</ele>
        <time>2013-01-30T11:37:34Z</time>
      </trkpt>
      <trkpt lat="46.68191" lon="4.82873">
        <ele>164.4</ele>
        <time>2013-01-30T11:37:39Z</time>
      </trkpt>
      <trkpt lat="46.68203" lon="4.82888">
        <ele>165</ele>
        <time>2013-01-30T11:37:45Z</time>
      </trkpt>
      <trkpt lat="46.68208" lon="4.82892">
        <ele>166.3</ele>
        <time>2013-01-30T11:37:47Z</time>
      </trkpt>
      <trkpt lat="46.68212" lon="4.82897">
        <ele>163.7</ele>
        <time>2013-01-30T11:37:49Z</time>
      </trkpt>
      <trkpt lat="46.68219" lon="4.82906">
        <ele>159.5</ele>
        <time>2013-01-30T11:37:53Z</time>
      </trkpt>
      <trkpt lat="46.68229" lon="4.82918">
        <ele>155.6</ele>
        <time>2013-01-30T11:37:58Z</time>
      </trkpt>
      <trkpt lat="46.68237" lon="4.82929">
        <ele>160.9</ele>
        <time>2013-01-30T11:38:02Z</time>
      </trkpt>
      <trkpt lat="46.68244" lon="4.82937">
        <ele>161.2</ele>
        <time>2013-01-30T11:38:05Z</time>
      </trkpt>
      <trkpt lat="46.68257" lon="4.82948">
        <ele>165.1</ele>
        <time>2013-01-30T11:38:11Z</time>
      </trkpt>
      <trkpt lat="46.68268" lon="4.82958">
        <ele>157.4</ele>
        <time>2013-01-30T11:38:16Z</time>
      </trkpt>
      <trkpt lat="46.68277" lon="4.82967">
        <ele>161.2</ele>
        <time>2013-01-30T11:38:20Z</time>
      </trkpt>
      <trkpt lat="46.68285" lon="4.82979">
        <ele>166</ele>
        <time>2013-01-30T11:38:24Z</time>
      </trkpt>
      <trkpt lat="46.68294" lon="4.82993">
        <ele>166.4</ele>
        <time>2013-01-30T11:38:29Z</time>
      </trkpt>
      <trkpt lat="46.68303" lon="4.83001">
        <ele>166.9</ele>
        <time>2013-01-30T11:38:33Z</time>
      </trkpt>
      <trkpt lat="46.68308" lon="4.83005">
        <ele>170.8</ele>
        <time>2013-01-30T11:38:35Z</time>
      </trkpt>
      <trkpt lat="46.68313" lon="4.83009">
        <ele>169.3</ele>
        <time>2013-01-30T11:38:37Z</time>
      </trkpt>
      <trkpt lat="46.68324" lon="4.83021">
        <ele>169</ele>
        <time>2013-01-30T11:38:42Z</time>
      </trkpt>
      <trkpt lat="46.68333" lon="4.83028">
        <ele>168</ele>
        <time>2013-01-30T11:38:46Z</time>
      </trkpt>
      <trkpt lat="46.68342" lon="4.83039">
        <ele>173.4</ele>
        <time>2013-01-30T11:38:51Z</time>
      </trkpt>
      <trkpt lat="46.68353" lon="4.83051">
        <ele>171.1</ele>
        <time>2013-01-30T11:38:56Z</time>
      </trkpt>
      <trkpt lat="46.68365" lon="4.83065">
        <ele>166.5</ele>
        <time>2013-01-30T11:39:02Z</time>
      </trkpt>
      <trkpt lat="46.68378" lon="4.83079">
        <ele>171.7</ele>
        <time>2013-01-30T11:39:08Z</time>
      </trkpt>
      <trkpt lat="46.68385" lon="4.83086">
        <ele>164.9</ele>
        <time>2013-01-30T11:39:12Z</time>
      </trkpt>
      <trkpt lat="46.68392" lon="4.83095">
        <ele>167.8</ele>
        <time>2013-01-30T11:39:16Z</time>
      </trkpt>
      <trkpt lat="46.684" lon="4.83104">
        <ele>170.8</ele>
        <time>2013-01-30T11:39:19Z</time>
      </trkpt>
      <trkpt lat="46.68408" lon="4.83111">
        <ele>166.6</ele>
        <time>2013-01-30T11:39:22Z</time>
      </trkpt>
      <trkpt lat="46.6842" lon="4.83121">
        <ele>178.8</ele>
        <time>2013-01-30T11:39:27Z</time>
      </trkpt>
      <trkpt lat="46.68431" lon="4.83135">
        <ele>178.5</ele>
        <time>2013-01-30T11:39:32Z</time>
      </trkpt>
      <trkpt lat="46.68439" lon="4.83144">
        <ele>174.1</ele>
        <time>2013-01-30T11:39:36Z</time>
      </trkpt>
      <trkpt lat="46.68451" lon="4.83157">
        <ele>174.4</ele>
        <time>2013-01-30T11:39:42Z</time>
      </trkpt>
      <trkpt lat="46.6846" lon="4.83169">
        <ele>178.8</ele>
        <time>2013-01-30T11:39:47Z</time>
      </trkpt>
      <trkpt lat="46.68464" lon="4.83174">
        <ele>173.9</ele>
        <time>2013-01-30T11:39:49Z</time>
      </trkpt>
      <trkpt lat="46.68468" lon="4.83179">
        <ele>176.3</ele>
        <time>2013-01-30T11:39:51Z</time>
      </trkpt>
      <trkpt lat="46.68472" lon="4.83183">
        <ele>175.2</ele>
        <time>2013-01-30T11:39:53Z</time>
      </trkpt>
      <trkpt lat="46.68476" lon="4.83187">
        <ele>171</ele>
        <time>2013-01-30T11:39:55Z</time>
      </trkpt>
      <trkpt lat="46.6848" lon="4.83192">
        <ele>172.7</ele>
        <time>2013-01-30T11:39:57Z</time>
      </trkpt>
      <trkpt lat="46.68485" lon="4.83197">
        <ele>171.3</ele>
        <time>2013-01-30T11:39:59Z</time>
      </trkpt>
      <trkpt lat="46.68496" lon="4.83208">
        <ele>173.7</ele>
        <time>2013-01-30T11:40:05Z</time>
      </trkpt>
      <trkpt lat="46.68503" lon="4.83217">
        <ele>175.9</ele>
        <time>2013-01-30T11:40:09Z</time>
      </trkpt>
      <trkpt lat="46.68516" lon="4.8323">
        <ele>177.1</ele>
        <time>2013-01-30T11:40:15Z</time>
      </trkpt>
      <trkpt lat="46.68521" lon="4.83236">
        <ele>178.3</ele>
        <time>2013-01-30T11:40:18Z</time>
      </trkpt>
      <trkpt lat="46.68526" lon="4.83242">
        <ele>180.5</ele>
        <time>2013-01-30T11:40:21Z</time>
      </trkpt>
      <trkpt lat="46.68536" lon="4.83253">
        <ele>179.6</ele>
        <time>2013-01-30T11:40:26Z</time>
      </trkpt>
      <trkpt lat="46.68548" lon="4.83266">
        <ele>174.5</ele>
        <time>2013-01-30T11:40:32Z</time>
      </trkpt>
      <trkpt lat="46.68552" lon="4.83272">
        <ele>174.9</ele>
        <time>2013-01-30T11:40:34Z</time>
      </trkpt>
      <trkpt lat="46.68557" lon="4.83278">
        <ele>180.3</ele>
        <time>2013-01-30T11:40:36Z</time>
      </trkpt>
      <trkpt lat="46.68561" lon="4.83283">
        <ele>177.7</ele>
        <time>2013-01-30T11:40:38Z</time>
      </trkpt>
      <trkpt lat="46.68574" lon="4.83298">
        <ele>175.1</ele>
        <time>2013-01-30T11:40:44Z</time>
      </trkpt>
      <trkpt lat="46.68586" lon="4.83312">
        <ele>173.5</ele>
        <time>2013-01-30T11:40:50Z</time>
      </trkpt>
      <trkpt lat="46.68598" lon="4.83326">
        <ele>181.9</ele>
        <time>2013-01-30T11:40:56Z</time>
      </trkpt>
      <trkpt lat="46.68608" lon="4.83338">
        <ele>176.1</ele>
        <time>2013-01-30T11:41:01Z</time>
      </trkpt>
      <trkpt lat="46.68618" lon="4.83349">
        <ele>180.7</ele>
        <time>2013-01-30T11:41:06Z</time>
      </trkpt>
      <trkpt lat="46.68628" lon="4.83361">
        <ele>181.1</ele>
        <time>2013-01-30T11:41:11Z</time>
      </trkpt>
      <trkpt lat="46.6864" lon="4.83374">
        <ele>183.5</ele>
        <time>2013-01-30T11:41:17Z</time>
      </trkpt>
      <trkpt lat="46.68644" lon="4.83377">
        <ele>181.6</ele>
        <time>2013-01-30T11:41:19Z</time>
      </trkpt>
      <trkpt lat="46.68648" lon="4.83382">
        <ele>183.9</ele>
        <time>2013-01-30T11:41:21Z</time>
      </trkpt>
      <trkpt lat="46.68655" lon="4.83391">
        <ele>182.9</ele>
        <time>2013-01-30T11:41:25Z</time>
      </trkpt>
      <trkpt lat="46.68665" lon="4.83403">
        <ele>175.9</ele>
        <time>2013-01-30T11:41:30Z</time>
      </trkpt>
      <trkpt lat="46.68674" lon="4.83411">
        <ele>172.1</ele>
        <time>2013-01-30T11:41:34Z</time>
      </trkpt>
      <trkpt lat="46.68685" lon="4.83422">
        <ele>173.4</ele>
        <time>2013-01-30T11:41:39Z</time>
      </trkpt>
      <trkpt lat="46.68696" lon="4.83435">
        <ele>175.3</ele>
        <time>2013-01-30T11:41:44Z</time>
      </trkpt>
      <trkpt lat="46.68707" lon="4.83447">
        <ele>177.1</ele>
        <time>2013-01-30T11:41:49Z</time>
      </trkpt>
      <trkpt lat="46.68715" lon="4.83456">
        <ele>167.8</ele>
        <time>2013-01-30T11:41:53Z</time>
      </trkpt>
      <trkpt lat="46.68723" lon="4.83463">
        <ele>172.3</ele>
        <time>2013-01-30T11:41:56Z</time>
      </trkpt>
      <trkpt lat="46.68728" lon="4.83467">
        <ele>170.8</ele>
        <time>2013-01-30T11:41:58Z</time>
      </trkpt>
      <trkpt lat="46.68733" lon="4.83474">
        <ele>171.5</ele>
        <time>2013-01-30T11:42:01Z</time>
      </trkpt>
      <trkpt lat="46.68741" lon="4.83481">
        <ele>175.2</ele>
        <time>2013-01-30T11:42:05Z</time>
      </trkpt>
      <trkpt lat="46.68749" lon="4.83489">
        <ele>170.2</ele>
        <time>2013-01-30T11:42:09Z</time>
      </trkpt>
      <trkpt lat="46.6876" lon="4.83501">
        <ele>179.2</ele>
        <time>2013-01-30T11:42:15Z</time>
      </trkpt>
      <trkpt lat="46.68769" lon="4.83515">
        <ele>178.9</ele>
        <time>2013-01-30T11:42:20Z</time>
      </trkpt>
      <trkpt lat="46.6878" lon="4.83528">
        <ele>177.9</ele>
        <time>2013-01-30T11:42:26Z</time>
      </trkpt>
      <trkpt lat="46.68788" lon="4.83537">
        <ele>172.9</ele>
        <time>2013-01-30T11:42:30Z</time>
      </trkpt>
      <trkpt lat="46.68793" lon="4.83544">
        <ele>174.8</ele>
        <time>2013-01-30T11:42:33Z</time>
      </trkpt>
      <trkpt lat="46.68797" lon="4.83549">
        <ele>177.6</ele>
        <time>2013-01-30T11:42:35Z</time>
      </trkpt>
      <trkpt lat="46.68808" lon="4.83559">
        <ele>178.5</ele>
        <time>2013-01-30T11:42:40Z</time>
      </trkpt>
      <trkpt lat="46.68815" lon="4.83568">
        <ele>183.4</ele>
        <time>2013-01-30T11:42:44Z</time>
      </trkpt>
      <trkpt lat="46.68825" lon="4.83578">
        <ele>183.9</ele>
        <time>2013-01-30T11:42:49Z</time>
      </trkpt>
      <trkpt lat="46.68837" lon="4.83588">
        <ele>187.1</ele>
        <time>2013-01-30T11:42:54Z</time>
      </trkpt>
      <trkpt lat="46.68843" lon="4.83597">
        <ele>177.8</ele>
        <time>2013-01-30T11:42:57Z</time>
      </trkpt>
      <trkpt lat="46.68853" lon="4.83609">
        <ele>181.9</ele>
        <time>2013-01-30T11:43:02Z</time>
      </trkpt>
      <trkpt lat="46.68861" lon="4.83619">
        <ele>185</ele>
        <time>2013-01-30T11:43:06Z</time>
      </trkpt>
      <trkpt lat="46.68869" lon="4.83626">
        <ele>184.4</ele>
        <time>2013-01-30T11:43:10Z</time>
      </trkpt>
      <trkpt lat="46.68873" lon="4.8363">
        <ele>184</ele>
        <time>2013-01-30T11:43:12Z</time>
      </trkpt>
      <trkpt lat="46.68877" lon="4.83634">
        <ele>188</ele>
        <time>2013-01-30T11:43:14Z</time>
      </trkpt>
      <trkpt lat="46.68888" lon="4.83647">
        <ele>181.2</ele>
        <time>2013-01-30T11:43:20Z</time>
      </trkpt>
      <trkpt lat="46.68897" lon="4.83658">
        <ele>182</ele>
        <time>2013-01-30T11:43:24Z</time>
      </trkpt>
      <trkpt lat="46.68903" lon="4.83663">
        <ele>178.3</ele>
        <time>2013-01-30T11:43:27Z</time>
      </trkpt>
      <trkpt lat="46.68907" lon="4.83668">
        <ele>184.8</ele>
        <time>2013-01-30T11:43:29Z</time>
      </trkpt>
      <trkpt lat="46.68916" lon="4.83675">
        <ele>183.3</ele>
        <time>2013-01-30T11:43:33Z</time>
      </trkpt>
      <trkpt lat="46.68928" lon="4.8369">
        <ele>184.7</ele>
        <time>2013-01-30T11:43:40Z</time>
      </trkpt>
      <trkpt lat="46.68936" lon="4.83699">
        <ele>183.4</ele>
        <time>2013-01-30T11:43:44Z</time>
      </trkpt>
      <trkpt lat="46.68945" lon="4.83707">
        <ele>180.7</ele>
        <time>2013-01-30T11:43:48Z</time>
      </trkpt>
      <trkpt lat="46.68953" lon="4.83717">
        <ele>186.4</ele>
        <time>2013-01-30T11:43:52Z</time>
      </trkpt>
      <trkpt lat="46.68965" lon="4.83729">
        <ele>180.4</ele>
        <time>2013-01-30T11:43:58Z</time>
      </trkpt>
      <trkpt lat="46.68976" lon="4.83745">
        <ele>183.4</ele>
        <time>2013-01-30T11:44:04Z</time>
      </trkpt>
      <trkpt lat="46.68984" lon="4.83754">
        <ele>181.8</ele>
        <time>2013-01-30T11:44:09Z</time>
      </trkpt>
      <trkpt lat="46.68989" lon="4.83758">
        <ele>183.5</ele>
        <time>2013-01-30T11:44:11Z</time>
      </trkpt>
      <trkpt lat="46.68993" lon="4.83763">
        <ele>185.9</ele>
        <time>2013-01-30T11:44:13Z</time>
      </trkpt>
      <trkpt lat="46.69002" lon="4.83772">
        <ele>186.7</ele>
        <time>2013-01-30T11:44:18Z</time>
      </trkpt>
      <trkpt lat="46.69012" lon="4.83782">
        <ele>190</ele>
        <time>2013-01-30T11:44:23Z</time>
      </trkpt>
      <trkpt lat="46.69016" lon="4.83787">
        <ele>191.3</ele>
        <time>2013-01-30T11:44:25Z</time>
      </trkpt>
      <trkpt lat="46.69024" lon="4.83797">
        <ele>191.2</ele>
        <time>2013-01-30T11:44:29Z</time>
      </trkpt>
      <trkpt lat="46.69035" lon="4.83807">
        <ele>187.2</ele>
        <time>2013-01-30T11:44:34Z</time>
      </trkpt>
      <trkpt lat="46.69044" lon="4.83816">
        <ele>182.2</ele>
        <time>2013-01-30T11:44:38Z</time>
      </trkpt>
      <trkpt lat="46.69051" lon="4.83825">
        <ele>176.1</ele>
        <time>2013-01-30T11:44:41Z</time>
      </trkpt>
      <trkpt lat="46.6906" lon="4.83835">
        <ele>174.6</ele>
        <time>2013-01-30T11:44:45Z</time>
      </trkpt>
      <trkpt lat="46.6907" lon="4.83848">
        <ele>178.4</ele>
        <time>2013-01-30T11:44:50Z</time>
      </trkpt>
      <trkpt lat="46.69079" lon="4.83856">
        <ele>179</ele>
        <time>2013-01-30T11:44:54Z</time>
      </trkpt>
      <trkpt lat="46.69091" lon="4.83866">
        <ele>187.3</ele>
        <time>2013-01-30T11:45:01Z</time>
      </trkpt>
      <trkpt lat="46.69097" lon="4.83871">
        <ele>187.7</ele>
        <time>2013-01-30T11:45:03Z</time>
      </trkpt>
      <trkpt lat="46.69101" lon="4.83879">
        <ele>187.2</ele>
        <time>2013-01-30T11:45:05Z</time>
      </trkpt>
      <trkpt lat="46.69113" lon="4.83886">
        <ele>182</ele>
        <time>2013-01-30T11:45:10Z</time>
      </trkpt>
      <trkpt lat="46.69123" lon="4.83901">
        <ele>179.3</ele>
        <time>2013-01-30T11:45:15Z</time>
      </trkpt>
      <trkpt lat="46.69134" lon="4.83913">
        <ele>177</ele>
        <time>2013-01-30T11:45:20Z</time>
      </trkpt>
      <trkpt lat="46.69147" lon="4.83927">
        <ele>175.8</ele>
        <time>2013-01-30T11:45:26Z</time>
      </trkpt>
      <trkpt lat="46.69154" lon="4.83937">
        <ele>173.6</ele>
        <time>2013-01-30T11:45:29Z</time>
      </trkpt>
      <trkpt lat="46.69164" lon="4.83944">
        <ele>176.2</ele>
        <time>2013-01-30T11:45:33Z</time>
      </trkpt>
      <trkpt lat="46.69175" lon="4.83958">
        <ele>182.3</ele>
        <time>2013-01-30T11:45:38Z</time>
      </trkpt>
      <trkpt lat="46.69185" lon="4.83971">
        <ele>190.3</ele>
        <time>2013-01-30T11:45:43Z</time>
      </trkpt>
      <trkpt lat="46.69198" lon="4.83983">
        <ele>183.6</ele>
        <time>2013-01-30T11:45:49Z</time>
      </trkpt>
      <trkpt lat="46.69202" lon="4.83987">
        <ele>184.2</ele>
        <time>2013-01-30T11:45:51Z</time>
      </trkpt>
      <trkpt lat="46.69206" lon="4.83993">
        <ele>182.6</ele>
        <time>2013-01-30T11:45:53Z</time>
      </trkpt>
      <trkpt lat="46.69213" lon="4.84005">
        <ele>182.8</ele>
        <time>2013-01-30T11:45:57Z</time>
      </trkpt>
      <trkpt lat="46.6922" lon="4.84016">
        <ele>187.3</ele>
        <time>2013-01-30T11:46:01Z</time>
      </trkpt>
      <trkpt lat="46.69228" lon="4.84027">
        <ele>180.5</ele>
        <time>2013-01-30T11:46:05Z</time>
      </trkpt>
      <trkpt lat="46.69232" lon="4.84033">
        <ele>179.8</ele>
        <time>2013-01-30T11:46:08Z</time>
      </trkpt>
      <trkpt lat="46.69237" lon="4.84038">
        <ele>184.6</ele>
        <time>2013-01-30T11:46:11Z</time>
      </trkpt>
      <trkpt lat="46.69241" lon="4.84043">
        <ele>185.1</ele>
        <time>2013-01-30T11:46:13Z</time>
      </trkpt>
      <trkpt lat="46.69244" lon="4.84048">
        <ele>185.1</ele>
        <time>2013-01-30T11:46:15Z</time>
      </trkpt>
      <trkpt lat="46.69249" lon="4.84054">
        <ele>183.9</ele>
        <time>2013-01-30T11:46:17Z</time>
      </trkpt>
      <trkpt lat="46.69253" lon="4.84059">
        <ele>179.5</ele>
        <time>2013-01-30T11:46:19Z</time>
      </trkpt>
      <trkpt lat="46.69259" lon="4.84068">
        <ele>182.4</ele>
        <time>2013-01-30T11:46:22Z</time>
      </trkpt>
      <trkpt lat="46.6927" lon="4.84082">
        <ele>182.8</ele>
        <time>2013-01-30T11:46:27Z</time>
      </trkpt>
      <trkpt lat="46.69277" lon="4.84091">
        <ele>184.4</ele>
        <time>2013-01-30T11:46:30Z</time>
      </trkpt>
      <trkpt lat="46.69289" lon="4.84108">
        <ele>178.1</ele>
        <time>2013-01-30T11:46:36Z</time>
      </trkpt>
      <trkpt lat="46.693" lon="4.84117">
        <ele>181.1</ele>
        <time>2013-01-30T11:46:41Z</time>
      </trkpt>
      <trkpt lat="46.69308" lon="4.84128">
        <ele>182.2</ele>
        <time>2013-01-30T11:46:45Z</time>
      </trkpt>
      <trkpt lat="46.69319" lon="4.84142">
        <ele>188.7</ele>
        <time>2013-01-30T11:46:51Z</time>
      </trkpt>
      <trkpt lat="46.6933" lon="4.84155">
        <ele>189</ele>
        <time>2013-01-30T11:46:56Z</time>
      </trkpt>
      <trkpt lat="46.69339" lon="4.84165">
        <ele>186.5</ele>
        <time>2013-01-30T11:47:00Z</time>
      </trkpt>
      <trkpt lat="46.69344" lon="4.8417">
        <ele>188.8</ele>
        <time>2013-01-30T11:47:02Z</time>
      </trkpt>
      <trkpt lat="46.69348" lon="4.84175">
        <ele>186.8</ele>
        <time>2013-01-30T11:47:04Z</time>
      </trkpt>
      <trkpt lat="46.69356" lon="4.84185">
        <ele>188.2</ele>
        <time>2013-01-30T11:47:08Z</time>
      </trkpt>
      <trkpt lat="46.69367" lon="4.84198">
        <ele>191.5</ele>
        <time>2013-01-30T11:47:13Z</time>
      </trkpt>
      <trkpt lat="46.69375" lon="4.84208">
        <ele>187.9</ele>
        <time>2013-01-30T11:47:17Z</time>
      </trkpt>
      <trkpt lat="46.69386" lon="4.84217">
        <ele>190.2</ele>
        <time>2013-01-30T11:47:22Z</time>
      </trkpt>
      <trkpt lat="46.69391" lon="4.84221">
        <ele>188</ele>
        <time>2013-01-30T11:47:24Z</time>
      </trkpt>
      <trkpt lat="46.69396" lon="4.84225">
        <ele>189</ele>
        <time>2013-01-30T11:47:26Z</time>
      </trkpt>
      <trkpt lat="46.69401" lon="4.84227">
        <ele>184.2</ele>
        <time>2013-01-30T11:47:28Z</time>
      </trkpt>
      <trkpt lat="46.69416" lon="4.84229">
        <ele>190.1</ele>
        <time>2013-01-30T11:47:34Z</time>
      </trkpt>
      <trkpt lat="46.69425" lon="4.8423">
        <ele>188.9</ele>
        <time>2013-01-30T11:47:38Z</time>
      </trkpt>
      <trkpt lat="46.69436" lon="4.84231">
        <ele>192.3</ele>
        <time>2013-01-30T11:47:42Z</time>
      </trkpt>
      <trkpt lat="46.69445" lon="4.84232">
        <ele>193</ele>
        <time>2013-01-30T11:47:46Z</time>
      </trkpt>
      <trkpt lat="46.69455" lon="4.84232">
        <ele>191.3</ele>
        <time>2013-01-30T11:47:50Z</time>
      </trkpt>
      <trkpt lat="46.69465" lon="4.84234">
        <ele>189.9</ele>
        <time>2013-01-30T11:47:54Z</time>
      </trkpt>
      <trkpt lat="46.69474" lon="4.84234">
        <ele>188.4</ele>
        <time>2013-01-30T11:47:58Z</time>
      </trkpt>
      <trkpt lat="46.69489" lon="4.84234">
        <ele>182.7</ele>
        <time>2013-01-30T11:48:04Z</time>
      </trkpt>
      <trkpt lat="46.69499" lon="4.84233">
        <ele>178.5</ele>
        <time>2013-01-30T11:48:08Z</time>
      </trkpt>
      <trkpt lat="46.69506" lon="4.84232">
        <ele>178.6</ele>
        <time>2013-01-30T11:48:10Z</time>
      </trkpt>
      <trkpt lat="46.69511" lon="4.84232">
        <ele>176.9</ele>
        <time>2013-01-30T11:48:12Z</time>
      </trkpt>
      <trkpt lat="46.69521" lon="4.84232">
        <ele>185.2</ele>
        <time>2013-01-30T11:48:16Z</time>
      </trkpt>
      <trkpt lat="46.69527" lon="4.84231">
        <ele>189.5</ele>
        <time>2013-01-30T11:48:18Z</time>
      </trkpt>
      <trkpt lat="46.69535" lon="4.84231">
        <ele>187.4</ele>
        <time>2013-01-30T11:48:21Z</time>
      </trkpt>
      <trkpt lat="46.69546" lon="4.84232">
        <ele>186.1</ele>
        <time>2013-01-30T11:48:25Z</time>
      </trkpt>
      <trkpt lat="46.69559" lon="4.84232">
        <ele>183.7</ele>
        <time>2013-01-30T11:48:30Z</time>
      </trkpt>
      <trkpt lat="46.69569" lon="4.84231">
        <ele>183.5</ele>
        <time>2013-01-30T11:48:34Z</time>
      </trkpt>
      <trkpt lat="46.69575" lon="4.8423">
        <ele>183.4</ele>
        <time>2013-01-30T11:48:36Z</time>
      </trkpt>
      <trkpt lat="46.6958" lon="4.8423">
        <ele>184.7</ele>
        <time>2013-01-30T11:48:38Z</time>
      </trkpt>
      <trkpt lat="46.69596" lon="4.8423">
        <ele>186.2</ele>
        <time>2013-01-30T11:48:44Z</time>
      </trkpt>
      <trkpt lat="46.69608" lon="4.84228">
        <ele>188.4</ele>
        <time>2013-01-30T11:48:48Z</time>
      </trkpt>
      <trkpt lat="46.69623" lon="4.84225">
        <ele>180.8</ele>
        <time>2013-01-30T11:48:54Z</time>
      </trkpt>
      <trkpt lat="46.69637" lon="4.84218">
        <ele>185.4</ele>
        <time>2013-01-30T11:49:00Z</time>
      </trkpt>
      <trkpt lat="46.6965" lon="4.84214">
        <ele>181.7</ele>
        <time>2013-01-30T11:49:04Z</time>
      </trkpt>
      <trkpt lat="46.69661" lon="4.8421">
        <ele>189</ele>
        <time>2013-01-30T11:49:08Z</time>
      </trkpt>
      <trkpt lat="46.69675" lon="4.84205">
        <ele>183</ele>
        <time>2013-01-30T11:49:14Z</time>
      </trkpt>
      <trkpt lat="46.69686" lon="4.84201">
        <ele>185.2</ele>
        <time>2013-01-30T11:49:18Z</time>
      </trkpt>
      <trkpt lat="46.69696" lon="4.84197">
        <ele>183.7</ele>
        <time>2013-01-30T11:49:22Z</time>
      </trkpt>
      <trkpt lat="46.69705" lon="4.84193">
        <ele>185.9</ele>
        <time>2013-01-30T11:49:26Z</time>
      </trkpt>
      <trkpt lat="46.69716" lon="4.84187">
        <ele>191.3</ele>
        <time>2013-01-30T11:49:30Z</time>
      </trkpt>
      <trkpt lat="46.69723" lon="4.84182">
        <ele>185</ele>
        <time>2013-01-30T11:49:33Z</time>
      </trkpt>
      <trkpt lat="46.69728" lon="4.8418">
        <ele>183.9</ele>
        <time>2013-01-30T11:49:35Z</time>
      </trkpt>
      <trkpt lat="46.69738" lon="4.84175">
        <ele>185</ele>
        <time>2013-01-30T11:49:39Z</time>
      </trkpt>
      <trkpt lat="46.69752" lon="4.84166">
        <ele>183.7</ele>
        <time>2013-01-30T11:49:45Z</time>
      </trkpt>
      <trkpt lat="46.69767" lon="4.84159">
        <ele>183.1</ele>
        <time>2013-01-30T11:49:51Z</time>
      </trkpt>
      <trkpt lat="46.69771" lon="4.84155">
        <ele>190.2</ele>
        <time>2013-01-30T11:49:53Z</time>
      </trkpt>
      <trkpt lat="46.69774" lon="4.84149">
        <ele>188.6</ele>
        <time>2013-01-30T11:49:55Z</time>
      </trkpt>
      <trkpt lat="46.69775" lon="4.84141">
        <ele>189.6</ele>
        <time>2013-01-30T11:49:57Z</time>
      </trkpt>
      <trkpt lat="46.69778" lon="4.84117">
        <ele>185</ele>
        <time>2013-01-30T11:50:02Z</time>
      </trkpt>
      <trkpt lat="46.69779" lon="4.84097">
        <ele>188.8</ele>
        <time>2013-01-30T11:50:07Z</time>
      </trkpt>
      <trkpt lat="46.6978" lon="4.84088">
        <ele>190.9</ele>
        <time>2013-01-30T11:50:09Z</time>
      </trkpt>
      <trkpt lat="46.69781" lon="4.84076">
        <ele>186.8</ele>
        <time>2013-01-30T11:50:12Z</time>
      </trkpt>
      <trkpt lat="46.69785" lon="4.8406">
        <ele>188.6</ele>
        <time>2013-01-30T11:50:16Z</time>
      </trkpt>
      <trkpt lat="46.69789" lon="4.84038">
        <ele>190.2</ele>
        <time>2013-01-30T11:50:22Z</time>
      </trkpt>
      <trkpt lat="46.69792" lon="4.84017">
        <ele>189.5</ele>
        <time>2013-01-30T11:50:27Z</time>
      </trkpt>
      <trkpt lat="46.69796" lon="4.84002">
        <ele>186.4</ele>
        <time>2013-01-30T11:50:31Z</time>
      </trkpt>
      <trkpt lat="46.698" lon="4.83984">
        <ele>182.9</ele>
        <time>2013-01-30T11:50:36Z</time>
      </trkpt>
      <trkpt lat="46.69804" lon="4.83963">
        <ele>186.6</ele>
        <time>2013-01-30T11:50:42Z</time>
      </trkpt>
      <trkpt lat="46.69807" lon="4.83947">
        <ele>184.8</ele>
        <time>2013-01-30T11:50:46Z</time>
      </trkpt>
      <trkpt lat="46.69811" lon="4.83928">
        <ele>186.6</ele>
        <time>2013-01-30T11:50:51Z</time>
      </trkpt>
      <trkpt lat="46.69815" lon="4.83907">
        <ele>188.1</ele>
        <time>2013-01-30T11:50:55Z</time>
      </trkpt>
      <trkpt lat="46.6982" lon="4.83888">
        <ele>188.8</ele>
        <time>2013-01-30T11:51:00Z</time>
      </trkpt>
      <trkpt lat="46.69824" lon="4.83869">
        <ele>187.9</ele>
        <time>2013-01-30T11:51:04Z</time>
      </trkpt>
      <trkpt lat="46.69828" lon="4.83849">
        <ele>191.2</ele>
        <time>2013-01-30T11:51:09Z</time>
      </trkpt>
      <trkpt lat="46.69832" lon="4.83828">
        <ele>193.3</ele>
        <time>2013-01-30T11:51:14Z</time>
      </trkpt>
      <trkpt lat="46.69829" lon="4.83805">
        <ele>189.8</ele>
        <time>2013-01-30T11:51:19Z</time>
      </trkpt>
      <trkpt lat="46.69815" lon="4.83797">
        <ele>190.8</ele>
        <time>2013-01-30T11:51:23Z</time>
      </trkpt>
      <trkpt lat="46.69806" lon="4.83794">
        <ele>183</ele>
        <time>2013-01-30T11:51:26Z</time>
      </trkpt>
      <trkpt lat="46.69791" lon="4.8379">
        <ele>188</ele>
        <time>2013-01-30T11:51:31Z</time>
      </trkpt>
      <trkpt lat="46.69788" lon="4.83776">
        <ele>192.4</ele>
        <time>2013-01-30T11:51:35Z</time>
      </trkpt>
      <trkpt lat="46.69789" lon="4.83763">
        <ele>193</ele>
        <time>2013-01-30T11:51:38Z</time>
      </trkpt>
      <trkpt lat="46.69789" lon="4.83749">
        <ele>191.6</ele>
        <time>2013-01-30T11:51:42Z</time>
      </trkpt>
      <trkpt lat="46.6979" lon="4.83743">
        <ele>189.8</ele>
        <time>2013-01-30T11:51:49Z</time>
      </trkpt>
      <trkpt lat="46.69791" lon="4.83745">
        <ele>191.3</ele>
        <time>2013-01-30T11:51:54Z</time>
      </trkpt>
      <trkpt lat="46.69791" lon="4.83745">
        <ele>190</ele>
        <time>2013-01-30T11:51:54Z</time>
      </trkpt>
    </trkseg>
    </trkseg>
  </trk>
</gpx>